<?xml version="1.0" encoding="UTF-8" standalone="no" ?>
<gpx xmlns="http://www.topografix.com/GPX/1/1" creator="CompeGPS" version="1.1" xmlns:xsi="http://www.w3.org/2001/XMLSchema-instance" xsi:schemaLocation="http://www.topografix.com/GPX/1/1 http://www.topografix.com/GPX/1/1/gpx.xsd http://www.garmin.com/xmlschemas/GpxExtensions/v3 http://www.garmin.com/xmlschemas/GpxExtensionsv3.xsd http://www.garmin.com/xmlschemas/TrackPointExtension/v1 http://www.garmin.com/xmlschemas/TrackPointExtensionv1.xsd" xmlns:gpxtpx="http://www.garmin.com/xmlschemas/TrackPointExtension/v1">
  <metadata>
    <link href="http://www.compegps.com">
      <text>CompeGPS TEAM, SL</text>
    </link>
    <time>2013-10-27T19:17:26Z</time>
    <bounds maxlat="42.892396" maxlon="0.500874" minlat="42.870517" minlon="0.472827"/>
  </metadata>
  <trk>
    <name>Mont-Ne</name>
    <trkseg>
      <trkpt lat="42.874053" lon="0.500873">
        <ele>1755.5</ele>
        <time>2013-10-26T07:54:26Z</time>
      </trkpt>
      <trkpt lat="42.874144" lon="0.500800">
        <ele>1755.2</ele>
        <time>2013-10-26T07:55:01Z</time>
      </trkpt>
      <trkpt lat="42.874255" lon="0.500791">
        <ele>1755.3</ele>
        <time>2013-10-26T07:55:16Z</time>
      </trkpt>
      <trkpt lat="42.874350" lon="0.500750">
        <ele>1755.1</ele>
        <time>2013-10-26T07:55:33Z</time>
      </trkpt>
      <trkpt lat="42.874393" lon="0.500621">
        <ele>1755.7</ele>
        <time>2013-10-26T07:55:46Z</time>
      </trkpt>
      <trkpt lat="42.874423" lon="0.500498">
        <ele>1756.6</ele>
        <time>2013-10-26T07:55:57Z</time>
      </trkpt>
      <trkpt lat="42.874497" lon="0.500390">
        <ele>1757.3</ele>
        <time>2013-10-26T07:56:07Z</time>
      </trkpt>
      <trkpt lat="42.874576" lon="0.500285">
        <ele>1757.7</ele>
        <time>2013-10-26T07:56:16Z</time>
      </trkpt>
      <trkpt lat="42.874636" lon="0.500202">
        <ele>1757.8</ele>
        <time>2013-10-26T07:56:25Z</time>
      </trkpt>
      <trkpt lat="42.874696" lon="0.500138">
        <ele>1757.4</ele>
        <time>2013-10-26T07:56:33Z</time>
      </trkpt>
      <trkpt lat="42.874761" lon="0.500049">
        <ele>1757.1</ele>
        <time>2013-10-26T07:56:42Z</time>
      </trkpt>
      <trkpt lat="42.874826" lon="0.499967">
        <ele>1756.7</ele>
        <time>2013-10-26T07:56:51Z</time>
      </trkpt>
      <trkpt lat="42.874904" lon="0.499881">
        <ele>1755.9</ele>
        <time>2013-10-26T07:56:59Z</time>
      </trkpt>
      <trkpt lat="42.874974" lon="0.499773">
        <ele>1755.1</ele>
        <time>2013-10-26T07:57:08Z</time>
      </trkpt>
      <trkpt lat="42.875032" lon="0.499674">
        <ele>1754.3</ele>
        <time>2013-10-26T07:57:16Z</time>
      </trkpt>
      <trkpt lat="42.875096" lon="0.499575">
        <ele>1753.6</ele>
        <time>2013-10-26T07:57:25Z</time>
      </trkpt>
      <trkpt lat="42.875151" lon="0.499467">
        <ele>1752.9</ele>
        <time>2013-10-26T07:57:34Z</time>
      </trkpt>
      <trkpt lat="42.875196" lon="0.499366">
        <ele>1752.3</ele>
        <time>2013-10-26T07:57:42Z</time>
      </trkpt>
      <trkpt lat="42.875252" lon="0.499254">
        <ele>1751.4</ele>
        <time>2013-10-26T07:57:51Z</time>
      </trkpt>
      <trkpt lat="42.875303" lon="0.499146">
        <ele>1751.0</ele>
        <time>2013-10-26T07:57:59Z</time>
      </trkpt>
      <trkpt lat="42.875354" lon="0.499035">
        <ele>1750.4</ele>
        <time>2013-10-26T07:58:06Z</time>
      </trkpt>
      <trkpt lat="42.875390" lon="0.498919">
        <ele>1749.9</ele>
        <time>2013-10-26T07:58:14Z</time>
      </trkpt>
      <trkpt lat="42.875433" lon="0.498805">
        <ele>1749.3</ele>
        <time>2013-10-26T07:58:22Z</time>
      </trkpt>
      <trkpt lat="42.875493" lon="0.498692">
        <ele>1748.7</ele>
        <time>2013-10-26T07:58:30Z</time>
      </trkpt>
      <trkpt lat="42.875555" lon="0.498590">
        <ele>1748.2</ele>
        <time>2013-10-26T07:58:38Z</time>
      </trkpt>
      <trkpt lat="42.875632" lon="0.498520">
        <ele>1748.1</ele>
        <time>2013-10-26T07:58:45Z</time>
      </trkpt>
      <trkpt lat="42.875731" lon="0.498488">
        <ele>1748.0</ele>
        <time>2013-10-26T07:58:54Z</time>
      </trkpt>
      <trkpt lat="42.875827" lon="0.498477">
        <ele>1747.8</ele>
        <time>2013-10-26T07:59:01Z</time>
      </trkpt>
      <trkpt lat="42.875930" lon="0.498492">
        <ele>1747.7</ele>
        <time>2013-10-26T07:59:09Z</time>
      </trkpt>
      <trkpt lat="42.876017" lon="0.498539">
        <ele>1747.8</ele>
        <time>2013-10-26T07:59:16Z</time>
      </trkpt>
      <trkpt lat="42.876106" lon="0.498567">
        <ele>1747.6</ele>
        <time>2013-10-26T07:59:23Z</time>
      </trkpt>
      <trkpt lat="42.876196" lon="0.498590">
        <ele>1747.1</ele>
        <time>2013-10-26T07:59:30Z</time>
      </trkpt>
      <trkpt lat="42.876275" lon="0.498620">
        <ele>1746.8</ele>
        <time>2013-10-26T07:59:38Z</time>
      </trkpt>
      <trkpt lat="42.876372" lon="0.498652">
        <ele>1746.4</ele>
        <time>2013-10-26T07:59:46Z</time>
      </trkpt>
      <trkpt lat="42.876456" lon="0.498694">
        <ele>1745.8</ele>
        <time>2013-10-26T07:59:54Z</time>
      </trkpt>
      <trkpt lat="42.876547" lon="0.498716">
        <ele>1745.3</ele>
        <time>2013-10-26T08:00:02Z</time>
      </trkpt>
      <trkpt lat="42.876637" lon="0.498726">
        <ele>1744.8</ele>
        <time>2013-10-26T08:00:10Z</time>
      </trkpt>
      <trkpt lat="42.876747" lon="0.498693">
        <ele>1744.0</ele>
        <time>2013-10-26T08:00:19Z</time>
      </trkpt>
      <trkpt lat="42.876838" lon="0.498624">
        <ele>1743.2</ele>
        <time>2013-10-26T08:00:28Z</time>
      </trkpt>
      <trkpt lat="42.876941" lon="0.498571">
        <ele>1742.5</ele>
        <time>2013-10-26T08:00:37Z</time>
      </trkpt>
      <trkpt lat="42.877038" lon="0.498518">
        <ele>1741.9</ele>
        <time>2013-10-26T08:00:45Z</time>
      </trkpt>
      <trkpt lat="42.877136" lon="0.498464">
        <ele>1741.8</ele>
        <time>2013-10-26T08:00:53Z</time>
      </trkpt>
      <trkpt lat="42.877223" lon="0.498424">
        <ele>1741.4</ele>
        <time>2013-10-26T08:01:00Z</time>
      </trkpt>
      <trkpt lat="42.877324" lon="0.498387">
        <ele>1740.9</ele>
        <time>2013-10-26T08:01:09Z</time>
      </trkpt>
      <trkpt lat="42.877420" lon="0.498347">
        <ele>1740.9</ele>
        <time>2013-10-26T08:01:17Z</time>
      </trkpt>
      <trkpt lat="42.877532" lon="0.498332">
        <ele>1741.1</ele>
        <time>2013-10-26T08:01:25Z</time>
      </trkpt>
      <trkpt lat="42.877628" lon="0.498374">
        <ele>1741.2</ele>
        <time>2013-10-26T08:01:32Z</time>
      </trkpt>
      <trkpt lat="42.877708" lon="0.498435">
        <ele>1741.4</ele>
        <time>2013-10-26T08:01:39Z</time>
      </trkpt>
      <trkpt lat="42.877791" lon="0.498470">
        <ele>1741.4</ele>
        <time>2013-10-26T08:01:46Z</time>
      </trkpt>
      <trkpt lat="42.877878" lon="0.498480">
        <ele>1740.9</ele>
        <time>2013-10-26T08:01:54Z</time>
      </trkpt>
      <trkpt lat="42.877985" lon="0.498503">
        <ele>1740.3</ele>
        <time>2013-10-26T08:02:03Z</time>
      </trkpt>
      <trkpt lat="42.878078" lon="0.498552">
        <ele>1740.0</ele>
        <time>2013-10-26T08:02:11Z</time>
      </trkpt>
      <trkpt lat="42.878161" lon="0.498623">
        <ele>1739.6</ele>
        <time>2013-10-26T08:02:19Z</time>
      </trkpt>
      <trkpt lat="42.878251" lon="0.498691">
        <ele>1739.4</ele>
        <time>2013-10-26T08:02:27Z</time>
      </trkpt>
      <trkpt lat="42.878338" lon="0.498698">
        <ele>1739.0</ele>
        <time>2013-10-26T08:02:35Z</time>
      </trkpt>
      <trkpt lat="42.878421" lon="0.498634">
        <ele>1738.6</ele>
        <time>2013-10-26T08:02:44Z</time>
      </trkpt>
      <trkpt lat="42.878493" lon="0.498553">
        <ele>1738.2</ele>
        <time>2013-10-26T08:02:52Z</time>
      </trkpt>
      <trkpt lat="42.878559" lon="0.498473">
        <ele>1737.8</ele>
        <time>2013-10-26T08:03:01Z</time>
      </trkpt>
      <trkpt lat="42.878633" lon="0.498382">
        <ele>1737.3</ele>
        <time>2013-10-26T08:03:10Z</time>
      </trkpt>
      <trkpt lat="42.878706" lon="0.498293">
        <ele>1736.7</ele>
        <time>2013-10-26T08:03:18Z</time>
      </trkpt>
      <trkpt lat="42.878764" lon="0.498204">
        <ele>1736.0</ele>
        <time>2013-10-26T08:03:26Z</time>
      </trkpt>
      <trkpt lat="42.878835" lon="0.498114">
        <ele>1735.2</ele>
        <time>2013-10-26T08:03:35Z</time>
      </trkpt>
      <trkpt lat="42.878905" lon="0.498001">
        <ele>1734.9</ele>
        <time>2013-10-26T08:03:43Z</time>
      </trkpt>
      <trkpt lat="42.878975" lon="0.497891">
        <ele>1734.0</ele>
        <time>2013-10-26T08:03:51Z</time>
      </trkpt>
      <trkpt lat="42.879027" lon="0.497798">
        <ele>1732.9</ele>
        <time>2013-10-26T08:03:59Z</time>
      </trkpt>
      <trkpt lat="42.879093" lon="0.497690">
        <ele>1732.0</ele>
        <time>2013-10-26T08:04:07Z</time>
      </trkpt>
      <trkpt lat="42.879135" lon="0.497583">
        <ele>1731.4</ele>
        <time>2013-10-26T08:04:14Z</time>
      </trkpt>
      <trkpt lat="42.879194" lon="0.497484">
        <ele>1730.6</ele>
        <time>2013-10-26T08:04:21Z</time>
      </trkpt>
      <trkpt lat="42.879246" lon="0.497369">
        <ele>1729.7</ele>
        <time>2013-10-26T08:04:29Z</time>
      </trkpt>
      <trkpt lat="42.879304" lon="0.497260">
        <ele>1728.9</ele>
        <time>2013-10-26T08:04:38Z</time>
      </trkpt>
      <trkpt lat="42.879377" lon="0.497191">
        <ele>1728.2</ele>
        <time>2013-10-26T08:04:45Z</time>
      </trkpt>
      <trkpt lat="42.879481" lon="0.497185">
        <ele>1727.5</ele>
        <time>2013-10-26T08:04:59Z</time>
      </trkpt>
      <trkpt lat="42.879601" lon="0.497206">
        <ele>1727.1</ele>
        <time>2013-10-26T08:05:07Z</time>
      </trkpt>
      <trkpt lat="42.879697" lon="0.497193">
        <ele>1726.4</ele>
        <time>2013-10-26T08:05:14Z</time>
      </trkpt>
      <trkpt lat="42.879785" lon="0.497137">
        <ele>1725.4</ele>
        <time>2013-10-26T08:05:21Z</time>
      </trkpt>
      <trkpt lat="42.879838" lon="0.497052">
        <ele>1724.8</ele>
        <time>2013-10-26T08:05:27Z</time>
      </trkpt>
      <trkpt lat="42.879904" lon="0.496990">
        <ele>1724.1</ele>
        <time>2013-10-26T08:05:35Z</time>
      </trkpt>
      <trkpt lat="42.879970" lon="0.496919">
        <ele>1723.2</ele>
        <time>2013-10-26T08:05:44Z</time>
      </trkpt>
      <trkpt lat="42.880070" lon="0.496865">
        <ele>1722.0</ele>
        <time>2013-10-26T08:05:53Z</time>
      </trkpt>
      <trkpt lat="42.880178" lon="0.496851">
        <ele>1720.6</ele>
        <time>2013-10-26T08:06:01Z</time>
      </trkpt>
      <trkpt lat="42.880269" lon="0.496819">
        <ele>1719.2</ele>
        <time>2013-10-26T08:06:09Z</time>
      </trkpt>
      <trkpt lat="42.880311" lon="0.496722">
        <ele>1716.9</ele>
        <time>2013-10-26T08:06:22Z</time>
      </trkpt>
      <trkpt lat="42.880317" lon="0.496610">
        <ele>1713.9</ele>
        <time>2013-10-26T08:06:34Z</time>
      </trkpt>
      <trkpt lat="42.880250" lon="0.496494">
        <ele>1711.8</ele>
        <time>2013-10-26T08:06:43Z</time>
      </trkpt>
      <trkpt lat="42.880216" lon="0.496385">
        <ele>1710.4</ele>
        <time>2013-10-26T08:06:54Z</time>
      </trkpt>
      <trkpt lat="42.880206" lon="0.496272">
        <ele>1707.9</ele>
        <time>2013-10-26T08:07:04Z</time>
      </trkpt>
      <trkpt lat="42.880207" lon="0.496149">
        <ele>1705.7</ele>
        <time>2013-10-26T08:07:15Z</time>
      </trkpt>
      <trkpt lat="42.880234" lon="0.496019">
        <ele>1702.9</ele>
        <time>2013-10-26T08:07:25Z</time>
      </trkpt>
      <trkpt lat="42.880265" lon="0.495893">
        <ele>1700.5</ele>
        <time>2013-10-26T08:07:34Z</time>
      </trkpt>
      <trkpt lat="42.880276" lon="0.495776">
        <ele>1698.1</ele>
        <time>2013-10-26T08:07:43Z</time>
      </trkpt>
      <trkpt lat="42.880288" lon="0.495663">
        <ele>1695.8</ele>
        <time>2013-10-26T08:07:52Z</time>
      </trkpt>
      <trkpt lat="42.880263" lon="0.495543">
        <ele>1693.3</ele>
        <time>2013-10-26T08:08:04Z</time>
      </trkpt>
      <trkpt lat="42.880353" lon="0.495490">
        <ele>1690.9</ele>
        <time>2013-10-26T08:08:15Z</time>
      </trkpt>
      <trkpt lat="42.880426" lon="0.495425">
        <ele>1687.6</ele>
        <time>2013-10-26T08:08:30Z</time>
      </trkpt>
      <trkpt lat="42.880487" lon="0.495336">
        <ele>1691.1</ele>
        <time>2013-10-26T08:08:57Z</time>
      </trkpt>
      <trkpt lat="42.880596" lon="0.495318">
        <ele>1693.1</ele>
        <time>2013-10-26T08:09:16Z</time>
      </trkpt>
      <trkpt lat="42.880648" lon="0.495216">
        <ele>1696.3</ele>
        <time>2013-10-26T08:09:33Z</time>
      </trkpt>
      <trkpt lat="42.880652" lon="0.495075">
        <ele>1699.0</ele>
        <time>2013-10-26T08:09:48Z</time>
      </trkpt>
      <trkpt lat="42.880640" lon="0.494948">
        <ele>1701.4</ele>
        <time>2013-10-26T08:10:02Z</time>
      </trkpt>
      <trkpt lat="42.880684" lon="0.494837">
        <ele>1703.9</ele>
        <time>2013-10-26T08:10:17Z</time>
      </trkpt>
      <trkpt lat="42.880736" lon="0.494720">
        <ele>1706.9</ele>
        <time>2013-10-26T08:10:32Z</time>
      </trkpt>
      <trkpt lat="42.880810" lon="0.494630">
        <ele>1709.4</ele>
        <time>2013-10-26T08:10:47Z</time>
      </trkpt>
      <trkpt lat="42.880882" lon="0.494542">
        <ele>1711.5</ele>
        <time>2013-10-26T08:11:01Z</time>
      </trkpt>
      <trkpt lat="42.880946" lon="0.494424">
        <ele>1713.9</ele>
        <time>2013-10-26T08:11:17Z</time>
      </trkpt>
      <trkpt lat="42.880995" lon="0.494313">
        <ele>1716.2</ele>
        <time>2013-10-26T08:11:30Z</time>
      </trkpt>
      <trkpt lat="42.881061" lon="0.494198">
        <ele>1717.8</ele>
        <time>2013-10-26T08:11:43Z</time>
      </trkpt>
      <trkpt lat="42.881110" lon="0.494066">
        <ele>1719.1</ele>
        <time>2013-10-26T08:11:55Z</time>
      </trkpt>
      <trkpt lat="42.881145" lon="0.493944">
        <ele>1720.6</ele>
        <time>2013-10-26T08:12:07Z</time>
      </trkpt>
      <trkpt lat="42.881198" lon="0.493829">
        <ele>1722.1</ele>
        <time>2013-10-26T08:12:20Z</time>
      </trkpt>
      <trkpt lat="42.881266" lon="0.493731">
        <ele>1723.2</ele>
        <time>2013-10-26T08:12:33Z</time>
      </trkpt>
      <trkpt lat="42.881367" lon="0.493640">
        <ele>1724.6</ele>
        <time>2013-10-26T08:12:47Z</time>
      </trkpt>
      <trkpt lat="42.881447" lon="0.493550">
        <ele>1725.2</ele>
        <time>2013-10-26T08:12:58Z</time>
      </trkpt>
      <trkpt lat="42.881525" lon="0.493478">
        <ele>1726.2</ele>
        <time>2013-10-26T08:13:08Z</time>
      </trkpt>
      <trkpt lat="42.881577" lon="0.493354">
        <ele>1727.5</ele>
        <time>2013-10-26T08:13:21Z</time>
      </trkpt>
      <trkpt lat="42.881638" lon="0.493232">
        <ele>1729.6</ele>
        <time>2013-10-26T08:13:34Z</time>
      </trkpt>
      <trkpt lat="42.881706" lon="0.493128">
        <ele>1731.2</ele>
        <time>2013-10-26T08:13:48Z</time>
      </trkpt>
      <trkpt lat="42.881782" lon="0.493056">
        <ele>1733.4</ele>
        <time>2013-10-26T08:14:02Z</time>
      </trkpt>
      <trkpt lat="42.881860" lon="0.492997">
        <ele>1734.2</ele>
        <time>2013-10-26T08:14:11Z</time>
      </trkpt>
      <trkpt lat="42.881938" lon="0.492945">
        <ele>1734.4</ele>
        <time>2013-10-26T08:14:20Z</time>
      </trkpt>
      <trkpt lat="42.882031" lon="0.492890">
        <ele>1734.3</ele>
        <time>2013-10-26T08:14:31Z</time>
      </trkpt>
      <trkpt lat="42.882125" lon="0.492830">
        <ele>1735.0</ele>
        <time>2013-10-26T08:14:44Z</time>
      </trkpt>
      <trkpt lat="42.882228" lon="0.492798">
        <ele>1736.2</ele>
        <time>2013-10-26T08:14:56Z</time>
      </trkpt>
      <trkpt lat="42.882287" lon="0.492792">
        <ele>1737.4</ele>
        <time>2013-10-26T08:15:20Z</time>
      </trkpt>
      <trkpt lat="42.882290" lon="0.492781">
        <ele>1736.0</ele>
        <time>2013-10-26T08:17:50Z</time>
      </trkpt>
      <trkpt lat="42.882333" lon="0.492688">
        <ele>1734.6</ele>
        <time>2013-10-26T08:18:04Z</time>
      </trkpt>
      <trkpt lat="42.882362" lon="0.492561">
        <ele>1730.7</ele>
        <time>2013-10-26T08:18:18Z</time>
      </trkpt>
      <trkpt lat="42.882377" lon="0.492438">
        <ele>1727.0</ele>
        <time>2013-10-26T08:18:30Z</time>
      </trkpt>
      <trkpt lat="42.882341" lon="0.492302">
        <ele>1722.9</ele>
        <time>2013-10-26T08:18:44Z</time>
      </trkpt>
      <trkpt lat="42.882306" lon="0.492176">
        <ele>1721.3</ele>
        <time>2013-10-26T08:18:54Z</time>
      </trkpt>
      <trkpt lat="42.882288" lon="0.492042">
        <ele>1719.8</ele>
        <time>2013-10-26T08:19:04Z</time>
      </trkpt>
      <trkpt lat="42.882290" lon="0.491909">
        <ele>1717.1</ele>
        <time>2013-10-26T08:19:15Z</time>
      </trkpt>
      <trkpt lat="42.882286" lon="0.491779">
        <ele>1714.5</ele>
        <time>2013-10-26T08:19:28Z</time>
      </trkpt>
      <trkpt lat="42.882217" lon="0.491663">
        <ele>1711.9</ele>
        <time>2013-10-26T08:19:39Z</time>
      </trkpt>
      <trkpt lat="42.882208" lon="0.491526">
        <ele>1710.4</ele>
        <time>2013-10-26T08:19:49Z</time>
      </trkpt>
      <trkpt lat="42.882183" lon="0.491411">
        <ele>1709.4</ele>
        <time>2013-10-26T08:19:58Z</time>
      </trkpt>
      <trkpt lat="42.882241" lon="0.491311">
        <ele>1707.9</ele>
        <time>2013-10-26T08:20:07Z</time>
      </trkpt>
      <trkpt lat="42.882231" lon="0.491175">
        <ele>1705.3</ele>
        <time>2013-10-26T08:20:18Z</time>
      </trkpt>
      <trkpt lat="42.882199" lon="0.491032">
        <ele>1703.5</ele>
        <time>2013-10-26T08:20:28Z</time>
      </trkpt>
      <trkpt lat="42.882180" lon="0.490923">
        <ele>1700.8</ele>
        <time>2013-10-26T08:20:40Z</time>
      </trkpt>
      <trkpt lat="42.882212" lon="0.490777">
        <ele>1698.7</ele>
        <time>2013-10-26T08:20:53Z</time>
      </trkpt>
      <trkpt lat="42.882304" lon="0.490730">
        <ele>1700.4</ele>
        <time>2013-10-26T08:21:07Z</time>
      </trkpt>
      <trkpt lat="42.882370" lon="0.490645">
        <ele>1699.8</ele>
        <time>2013-10-26T08:21:19Z</time>
      </trkpt>
      <trkpt lat="42.882459" lon="0.490545">
        <ele>1698.5</ele>
        <time>2013-10-26T08:21:30Z</time>
      </trkpt>
      <trkpt lat="42.882544" lon="0.490473">
        <ele>1697.2</ele>
        <time>2013-10-26T08:21:40Z</time>
      </trkpt>
      <trkpt lat="42.882582" lon="0.490383">
        <ele>1696.9</ele>
        <time>2013-10-26T08:21:51Z</time>
      </trkpt>
      <trkpt lat="42.882624" lon="0.490280">
        <ele>1697.2</ele>
        <time>2013-10-26T08:22:07Z</time>
      </trkpt>
      <trkpt lat="42.882609" lon="0.490138">
        <ele>1699.3</ele>
        <time>2013-10-26T08:22:20Z</time>
      </trkpt>
      <trkpt lat="42.882628" lon="0.490032">
        <ele>1702.6</ele>
        <time>2013-10-26T08:22:34Z</time>
      </trkpt>
      <trkpt lat="42.882653" lon="0.489897">
        <ele>1704.6</ele>
        <time>2013-10-26T08:22:48Z</time>
      </trkpt>
      <trkpt lat="42.882687" lon="0.489785">
        <ele>1705.8</ele>
        <time>2013-10-26T08:23:04Z</time>
      </trkpt>
      <trkpt lat="42.882728" lon="0.489659">
        <ele>1707.3</ele>
        <time>2013-10-26T08:23:17Z</time>
      </trkpt>
      <trkpt lat="42.882735" lon="0.489580">
        <ele>1710.6</ele>
        <time>2013-10-26T08:23:39Z</time>
      </trkpt>
      <trkpt lat="42.882728" lon="0.489448">
        <ele>1714.3</ele>
        <time>2013-10-26T08:23:56Z</time>
      </trkpt>
      <trkpt lat="42.882771" lon="0.489353">
        <ele>1716.8</ele>
        <time>2013-10-26T08:24:09Z</time>
      </trkpt>
      <trkpt lat="42.882776" lon="0.489262">
        <ele>1719.2</ele>
        <time>2013-10-26T08:24:26Z</time>
      </trkpt>
      <trkpt lat="42.882789" lon="0.489143">
        <ele>1721.2</ele>
        <time>2013-10-26T08:24:41Z</time>
      </trkpt>
      <trkpt lat="42.882827" lon="0.489028">
        <ele>1722.8</ele>
        <time>2013-10-26T08:24:53Z</time>
      </trkpt>
      <trkpt lat="42.882871" lon="0.488918">
        <ele>1725.5</ele>
        <time>2013-10-26T08:25:13Z</time>
      </trkpt>
      <trkpt lat="42.882910" lon="0.488813">
        <ele>1730.0</ele>
        <time>2013-10-26T08:25:36Z</time>
      </trkpt>
      <trkpt lat="42.883015" lon="0.488764">
        <ele>1733.7</ele>
        <time>2013-10-26T08:25:55Z</time>
      </trkpt>
      <trkpt lat="42.883073" lon="0.488732">
        <ele>1736.2</ele>
        <time>2013-10-26T08:26:58Z</time>
      </trkpt>
      <trkpt lat="42.883063" lon="0.488704">
        <ele>1737.6</ele>
        <time>2013-10-26T08:28:04Z</time>
      </trkpt>
      <trkpt lat="42.883090" lon="0.488689">
        <ele>1738.8</ele>
        <time>2013-10-26T08:30:07Z</time>
      </trkpt>
      <trkpt lat="42.883091" lon="0.488579">
        <ele>1739.0</ele>
        <time>2013-10-26T08:30:27Z</time>
      </trkpt>
      <trkpt lat="42.883113" lon="0.488447">
        <ele>1739.5</ele>
        <time>2013-10-26T08:30:39Z</time>
      </trkpt>
      <trkpt lat="42.883115" lon="0.488296">
        <ele>1739.3</ele>
        <time>2013-10-26T08:30:51Z</time>
      </trkpt>
      <trkpt lat="42.883100" lon="0.488163">
        <ele>1739.0</ele>
        <time>2013-10-26T08:31:05Z</time>
      </trkpt>
      <trkpt lat="42.883112" lon="0.488008">
        <ele>1738.9</ele>
        <time>2013-10-26T08:31:16Z</time>
      </trkpt>
      <trkpt lat="42.883126" lon="0.487870">
        <ele>1738.5</ele>
        <time>2013-10-26T08:31:29Z</time>
      </trkpt>
      <trkpt lat="42.883171" lon="0.487756">
        <ele>1736.7</ele>
        <time>2013-10-26T08:31:44Z</time>
      </trkpt>
      <trkpt lat="42.883168" lon="0.487633">
        <ele>1735.7</ele>
        <time>2013-10-26T08:31:55Z</time>
      </trkpt>
      <trkpt lat="42.883165" lon="0.487503">
        <ele>1736.2</ele>
        <time>2013-10-26T08:32:06Z</time>
      </trkpt>
      <trkpt lat="42.883187" lon="0.487368">
        <ele>1736.8</ele>
        <time>2013-10-26T08:32:18Z</time>
      </trkpt>
      <trkpt lat="42.883244" lon="0.487274">
        <ele>1738.2</ele>
        <time>2013-10-26T08:32:34Z</time>
      </trkpt>
      <trkpt lat="42.883296" lon="0.487158">
        <ele>1739.7</ele>
        <time>2013-10-26T08:32:47Z</time>
      </trkpt>
      <trkpt lat="42.883327" lon="0.487013">
        <ele>1740.2</ele>
        <time>2013-10-26T08:32:59Z</time>
      </trkpt>
      <trkpt lat="42.883383" lon="0.486896">
        <ele>1741.4</ele>
        <time>2013-10-26T08:33:11Z</time>
      </trkpt>
      <trkpt lat="42.883445" lon="0.486790">
        <ele>1741.1</ele>
        <time>2013-10-26T08:33:21Z</time>
      </trkpt>
      <trkpt lat="42.883493" lon="0.486691">
        <ele>1741.4</ele>
        <time>2013-10-26T08:33:31Z</time>
      </trkpt>
      <trkpt lat="42.883555" lon="0.486586">
        <ele>1741.6</ele>
        <time>2013-10-26T08:33:44Z</time>
      </trkpt>
      <trkpt lat="42.883647" lon="0.486519">
        <ele>1740.3</ele>
        <time>2013-10-26T08:33:54Z</time>
      </trkpt>
      <trkpt lat="42.883735" lon="0.486481">
        <ele>1740.4</ele>
        <time>2013-10-26T08:34:06Z</time>
      </trkpt>
      <trkpt lat="42.883823" lon="0.486391">
        <ele>1740.7</ele>
        <time>2013-10-26T08:34:20Z</time>
      </trkpt>
      <trkpt lat="42.883901" lon="0.486311">
        <ele>1741.0</ele>
        <time>2013-10-26T08:34:31Z</time>
      </trkpt>
      <trkpt lat="42.883971" lon="0.486217">
        <ele>1740.8</ele>
        <time>2013-10-26T08:34:41Z</time>
      </trkpt>
      <trkpt lat="42.884052" lon="0.486157">
        <ele>1740.2</ele>
        <time>2013-10-26T08:34:53Z</time>
      </trkpt>
      <trkpt lat="42.884148" lon="0.486132">
        <ele>1739.1</ele>
        <time>2013-10-26T08:35:05Z</time>
      </trkpt>
      <trkpt lat="42.884259" lon="0.486148">
        <ele>1737.8</ele>
        <time>2013-10-26T08:35:16Z</time>
      </trkpt>
      <trkpt lat="42.884345" lon="0.486181">
        <ele>1737.5</ele>
        <time>2013-10-26T08:35:25Z</time>
      </trkpt>
      <trkpt lat="42.884426" lon="0.486114">
        <ele>1738.5</ele>
        <time>2013-10-26T08:35:38Z</time>
      </trkpt>
      <trkpt lat="42.884514" lon="0.486136">
        <ele>1739.8</ele>
        <time>2013-10-26T08:35:50Z</time>
      </trkpt>
      <trkpt lat="42.884599" lon="0.486220">
        <ele>1740.8</ele>
        <time>2013-10-26T08:36:02Z</time>
      </trkpt>
      <trkpt lat="42.884697" lon="0.486221">
        <ele>1741.7</ele>
        <time>2013-10-26T08:36:13Z</time>
      </trkpt>
      <trkpt lat="42.884757" lon="0.486144">
        <ele>1741.6</ele>
        <time>2013-10-26T08:36:25Z</time>
      </trkpt>
      <trkpt lat="42.884843" lon="0.486162">
        <ele>1743.0</ele>
        <time>2013-10-26T08:37:08Z</time>
      </trkpt>
      <trkpt lat="42.884911" lon="0.486164">
        <ele>1744.7</ele>
        <time>2013-10-26T08:37:53Z</time>
      </trkpt>
      <trkpt lat="42.884905" lon="0.486307">
        <ele>1746.8</ele>
        <time>2013-10-26T08:38:07Z</time>
      </trkpt>
      <trkpt lat="42.884909" lon="0.486443">
        <ele>1748.7</ele>
        <time>2013-10-26T08:38:22Z</time>
      </trkpt>
      <trkpt lat="42.884975" lon="0.486512">
        <ele>1750.7</ele>
        <time>2013-10-26T08:38:37Z</time>
      </trkpt>
      <trkpt lat="42.885055" lon="0.486491">
        <ele>1754.2</ele>
        <time>2013-10-26T08:38:54Z</time>
      </trkpt>
      <trkpt lat="42.885109" lon="0.486404">
        <ele>1757.9</ele>
        <time>2013-10-26T08:39:15Z</time>
      </trkpt>
      <trkpt lat="42.885183" lon="0.486306">
        <ele>1761.7</ele>
        <time>2013-10-26T08:39:33Z</time>
      </trkpt>
      <trkpt lat="42.885249" lon="0.486218">
        <ele>1764.7</ele>
        <time>2013-10-26T08:39:50Z</time>
      </trkpt>
      <trkpt lat="42.885299" lon="0.486128">
        <ele>1767.3</ele>
        <time>2013-10-26T08:40:06Z</time>
      </trkpt>
      <trkpt lat="42.885349" lon="0.486068">
        <ele>1770.2</ele>
        <time>2013-10-26T08:40:23Z</time>
      </trkpt>
      <trkpt lat="42.885418" lon="0.485997">
        <ele>1773.1</ele>
        <time>2013-10-26T08:40:40Z</time>
      </trkpt>
      <trkpt lat="42.885493" lon="0.485923">
        <ele>1776.9</ele>
        <time>2013-10-26T08:41:00Z</time>
      </trkpt>
      <trkpt lat="42.885566" lon="0.485822">
        <ele>1782.1</ele>
        <time>2013-10-26T08:41:26Z</time>
      </trkpt>
      <trkpt lat="42.885661" lon="0.485778">
        <ele>1785.2</ele>
        <time>2013-10-26T08:41:42Z</time>
      </trkpt>
      <trkpt lat="42.885716" lon="0.485707">
        <ele>1789.3</ele>
        <time>2013-10-26T08:42:03Z</time>
      </trkpt>
      <trkpt lat="42.885773" lon="0.485676">
        <ele>1792.3</ele>
        <time>2013-10-26T08:42:18Z</time>
      </trkpt>
      <trkpt lat="42.885823" lon="0.485615">
        <ele>1795.8</ele>
        <time>2013-10-26T08:42:35Z</time>
      </trkpt>
      <trkpt lat="42.885899" lon="0.485547">
        <ele>1800.8</ele>
        <time>2013-10-26T08:43:01Z</time>
      </trkpt>
      <trkpt lat="42.885986" lon="0.485498">
        <ele>1804.9</ele>
        <time>2013-10-26T08:43:21Z</time>
      </trkpt>
      <trkpt lat="42.886030" lon="0.485488">
        <ele>1808.8</ele>
        <time>2013-10-26T08:43:43Z</time>
      </trkpt>
      <trkpt lat="42.886063" lon="0.485369">
        <ele>1812.3</ele>
        <time>2013-10-26T08:44:03Z</time>
      </trkpt>
      <trkpt lat="42.886090" lon="0.485241">
        <ele>1813.9</ele>
        <time>2013-10-26T08:44:16Z</time>
      </trkpt>
      <trkpt lat="42.886097" lon="0.485107">
        <ele>1816.7</ele>
        <time>2013-10-26T08:44:44Z</time>
      </trkpt>
      <trkpt lat="42.886083" lon="0.484973">
        <ele>1817.6</ele>
        <time>2013-10-26T08:44:55Z</time>
      </trkpt>
      <trkpt lat="42.886109" lon="0.484851">
        <ele>1819.9</ele>
        <time>2013-10-26T08:45:09Z</time>
      </trkpt>
      <trkpt lat="42.886111" lon="0.484723">
        <ele>1820.9</ele>
        <time>2013-10-26T08:45:24Z</time>
      </trkpt>
      <trkpt lat="42.886108" lon="0.484593">
        <ele>1821.4</ele>
        <time>2013-10-26T08:45:34Z</time>
      </trkpt>
      <trkpt lat="42.886050" lon="0.484480">
        <ele>1822.1</ele>
        <time>2013-10-26T08:45:45Z</time>
      </trkpt>
      <trkpt lat="42.886051" lon="0.484381">
        <ele>1822.8</ele>
        <time>2013-10-26T08:45:56Z</time>
      </trkpt>
      <trkpt lat="42.886017" lon="0.484295">
        <ele>1823.3</ele>
        <time>2013-10-26T08:46:09Z</time>
      </trkpt>
      <trkpt lat="42.885980" lon="0.484254">
        <ele>1823.4</ele>
        <time>2013-10-26T08:47:34Z</time>
      </trkpt>
      <trkpt lat="42.885972" lon="0.484150">
        <ele>1823.6</ele>
        <time>2013-10-26T08:49:10Z</time>
      </trkpt>
      <trkpt lat="42.885962" lon="0.484028">
        <ele>1823.0</ele>
        <time>2013-10-26T08:49:23Z</time>
      </trkpt>
      <trkpt lat="42.885938" lon="0.483897">
        <ele>1822.9</ele>
        <time>2013-10-26T08:50:10Z</time>
      </trkpt>
      <trkpt lat="42.885974" lon="0.483806">
        <ele>1823.8</ele>
        <time>2013-10-26T08:50:37Z</time>
      </trkpt>
      <trkpt lat="42.886048" lon="0.483820">
        <ele>1828.6</ele>
        <time>2013-10-26T08:50:58Z</time>
      </trkpt>
      <trkpt lat="42.886108" lon="0.483764">
        <ele>1833.1</ele>
        <time>2013-10-26T08:51:19Z</time>
      </trkpt>
      <trkpt lat="42.886171" lon="0.483696">
        <ele>1837.1</ele>
        <time>2013-10-26T08:51:40Z</time>
      </trkpt>
      <trkpt lat="42.886216" lon="0.483607">
        <ele>1840.5</ele>
        <time>2013-10-26T08:52:01Z</time>
      </trkpt>
      <trkpt lat="42.886262" lon="0.483503">
        <ele>1843.1</ele>
        <time>2013-10-26T08:52:18Z</time>
      </trkpt>
      <trkpt lat="42.886291" lon="0.483393">
        <ele>1845.7</ele>
        <time>2013-10-26T08:52:35Z</time>
      </trkpt>
      <trkpt lat="42.886349" lon="0.483282">
        <ele>1848.5</ele>
        <time>2013-10-26T08:52:54Z</time>
      </trkpt>
      <trkpt lat="42.886398" lon="0.483183">
        <ele>1851.1</ele>
        <time>2013-10-26T08:53:12Z</time>
      </trkpt>
      <trkpt lat="42.886451" lon="0.483073">
        <ele>1853.8</ele>
        <time>2013-10-26T08:53:29Z</time>
      </trkpt>
      <trkpt lat="42.886491" lon="0.482965">
        <ele>1857.1</ele>
        <time>2013-10-26T08:53:47Z</time>
      </trkpt>
      <trkpt lat="42.886506" lon="0.482830">
        <ele>1859.5</ele>
        <time>2013-10-26T08:54:04Z</time>
      </trkpt>
      <trkpt lat="42.886541" lon="0.482714">
        <ele>1862.0</ele>
        <time>2013-10-26T08:54:19Z</time>
      </trkpt>
      <trkpt lat="42.886577" lon="0.482598">
        <ele>1864.5</ele>
        <time>2013-10-26T08:54:35Z</time>
      </trkpt>
      <trkpt lat="42.886610" lon="0.482479">
        <ele>1867.1</ele>
        <time>2013-10-26T08:54:50Z</time>
      </trkpt>
      <trkpt lat="42.886634" lon="0.482367">
        <ele>1868.8</ele>
        <time>2013-10-26T08:55:05Z</time>
      </trkpt>
      <trkpt lat="42.886657" lon="0.482237">
        <ele>1871.4</ele>
        <time>2013-10-26T08:55:20Z</time>
      </trkpt>
      <trkpt lat="42.886665" lon="0.482113">
        <ele>1874.1</ele>
        <time>2013-10-26T08:55:38Z</time>
      </trkpt>
      <trkpt lat="42.886680" lon="0.481985">
        <ele>1876.6</ele>
        <time>2013-10-26T08:55:56Z</time>
      </trkpt>
      <trkpt lat="42.886703" lon="0.481860">
        <ele>1879.3</ele>
        <time>2013-10-26T08:56:14Z</time>
      </trkpt>
      <trkpt lat="42.886728" lon="0.481716">
        <ele>1882.6</ele>
        <time>2013-10-26T08:56:33Z</time>
      </trkpt>
      <trkpt lat="42.886772" lon="0.481603">
        <ele>1884.9</ele>
        <time>2013-10-26T08:56:47Z</time>
      </trkpt>
      <trkpt lat="42.886809" lon="0.481483">
        <ele>1887.3</ele>
        <time>2013-10-26T08:57:01Z</time>
      </trkpt>
      <trkpt lat="42.886853" lon="0.481366">
        <ele>1889.2</ele>
        <time>2013-10-26T08:57:14Z</time>
      </trkpt>
      <trkpt lat="42.886894" lon="0.481253">
        <ele>1891.5</ele>
        <time>2013-10-26T08:57:32Z</time>
      </trkpt>
      <trkpt lat="42.886936" lon="0.481189">
        <ele>1892.8</ele>
        <time>2013-10-26T09:03:32Z</time>
      </trkpt>
      <trkpt lat="42.886980" lon="0.481067">
        <ele>1894.1</ele>
        <time>2013-10-26T09:03:48Z</time>
      </trkpt>
      <trkpt lat="42.887017" lon="0.480947">
        <ele>1896.3</ele>
        <time>2013-10-26T09:04:03Z</time>
      </trkpt>
      <trkpt lat="42.887039" lon="0.480830">
        <ele>1898.3</ele>
        <time>2013-10-26T09:04:18Z</time>
      </trkpt>
      <trkpt lat="42.887055" lon="0.480696">
        <ele>1900.7</ele>
        <time>2013-10-26T09:04:33Z</time>
      </trkpt>
      <trkpt lat="42.887060" lon="0.480573">
        <ele>1902.7</ele>
        <time>2013-10-26T09:04:46Z</time>
      </trkpt>
      <trkpt lat="42.887054" lon="0.480437">
        <ele>1904.9</ele>
        <time>2013-10-26T09:05:00Z</time>
      </trkpt>
      <trkpt lat="42.887038" lon="0.480311">
        <ele>1907.0</ele>
        <time>2013-10-26T09:05:15Z</time>
      </trkpt>
      <trkpt lat="42.886966" lon="0.480265">
        <ele>1909.2</ele>
        <time>2013-10-26T09:05:31Z</time>
      </trkpt>
      <trkpt lat="42.886936" lon="0.480311">
        <ele>1909.1</ele>
        <time>2013-10-26T09:07:00Z</time>
      </trkpt>
      <trkpt lat="42.886929" lon="0.480278">
        <ele>1910.6</ele>
        <time>2013-10-26T09:08:19Z</time>
      </trkpt>
      <trkpt lat="42.886938" lon="0.480175">
        <ele>1911.6</ele>
        <time>2013-10-26T09:09:44Z</time>
      </trkpt>
      <trkpt lat="42.886988" lon="0.480074">
        <ele>1911.8</ele>
        <time>2013-10-26T09:10:39Z</time>
      </trkpt>
      <trkpt lat="42.887002" lon="0.479942">
        <ele>1913.6</ele>
        <time>2013-10-26T09:10:55Z</time>
      </trkpt>
      <trkpt lat="42.887020" lon="0.479812">
        <ele>1915.4</ele>
        <time>2013-10-26T09:11:08Z</time>
      </trkpt>
      <trkpt lat="42.887050" lon="0.479688">
        <ele>1917.2</ele>
        <time>2013-10-26T09:11:23Z</time>
      </trkpt>
      <trkpt lat="42.887067" lon="0.479569">
        <ele>1919.2</ele>
        <time>2013-10-26T09:11:38Z</time>
      </trkpt>
      <trkpt lat="42.887150" lon="0.479479">
        <ele>1921.0</ele>
        <time>2013-10-26T09:12:12Z</time>
      </trkpt>
      <trkpt lat="42.887228" lon="0.479405">
        <ele>1921.4</ele>
        <time>2013-10-26T09:12:24Z</time>
      </trkpt>
      <trkpt lat="42.887317" lon="0.479339">
        <ele>1922.0</ele>
        <time>2013-10-26T09:12:50Z</time>
      </trkpt>
      <trkpt lat="42.887395" lon="0.479266">
        <ele>1922.6</ele>
        <time>2013-10-26T09:13:00Z</time>
      </trkpt>
      <trkpt lat="42.887493" lon="0.479217">
        <ele>1922.9</ele>
        <time>2013-10-26T09:13:10Z</time>
      </trkpt>
      <trkpt lat="42.887578" lon="0.479176">
        <ele>1922.8</ele>
        <time>2013-10-26T09:13:19Z</time>
      </trkpt>
      <trkpt lat="42.887674" lon="0.479171">
        <ele>1923.2</ele>
        <time>2013-10-26T09:13:30Z</time>
      </trkpt>
      <trkpt lat="42.887772" lon="0.479163">
        <ele>1923.5</ele>
        <time>2013-10-26T09:14:00Z</time>
      </trkpt>
      <trkpt lat="42.887863" lon="0.479190">
        <ele>1922.8</ele>
        <time>2013-10-26T09:14:26Z</time>
      </trkpt>
      <trkpt lat="42.887953" lon="0.479225">
        <ele>1923.4</ele>
        <time>2013-10-26T09:14:36Z</time>
      </trkpt>
      <trkpt lat="42.887977" lon="0.479236">
        <ele>1924.0</ele>
        <time>2013-10-26T09:15:35Z</time>
      </trkpt>
      <trkpt lat="42.888025" lon="0.479121">
        <ele>1924.8</ele>
        <time>2013-10-26T09:15:45Z</time>
      </trkpt>
      <trkpt lat="42.888106" lon="0.479041">
        <ele>1925.8</ele>
        <time>2013-10-26T09:15:56Z</time>
      </trkpt>
      <trkpt lat="42.888189" lon="0.478965">
        <ele>1926.0</ele>
        <time>2013-10-26T09:16:07Z</time>
      </trkpt>
      <trkpt lat="42.888259" lon="0.478871">
        <ele>1926.4</ele>
        <time>2013-10-26T09:16:18Z</time>
      </trkpt>
      <trkpt lat="42.888286" lon="0.478752">
        <ele>1925.4</ele>
        <time>2013-10-26T09:16:31Z</time>
      </trkpt>
      <trkpt lat="42.888316" lon="0.478617">
        <ele>1923.1</ele>
        <time>2013-10-26T09:16:45Z</time>
      </trkpt>
      <trkpt lat="42.888381" lon="0.478490">
        <ele>1920.5</ele>
        <time>2013-10-26T09:17:00Z</time>
      </trkpt>
      <trkpt lat="42.888445" lon="0.478365">
        <ele>1918.8</ele>
        <time>2013-10-26T09:17:11Z</time>
      </trkpt>
      <trkpt lat="42.888491" lon="0.478244">
        <ele>1918.1</ele>
        <time>2013-10-26T09:17:26Z</time>
      </trkpt>
      <trkpt lat="42.888552" lon="0.478122">
        <ele>1917.1</ele>
        <time>2013-10-26T09:17:39Z</time>
      </trkpt>
      <trkpt lat="42.888628" lon="0.478019">
        <ele>1916.6</ele>
        <time>2013-10-26T09:17:52Z</time>
      </trkpt>
      <trkpt lat="42.888671" lon="0.477907">
        <ele>1916.1</ele>
        <time>2013-10-26T09:18:03Z</time>
      </trkpt>
      <trkpt lat="42.888728" lon="0.477805">
        <ele>1915.8</ele>
        <time>2013-10-26T09:18:13Z</time>
      </trkpt>
      <trkpt lat="42.888816" lon="0.477736">
        <ele>1915.7</ele>
        <time>2013-10-26T09:18:26Z</time>
      </trkpt>
      <trkpt lat="42.888893" lon="0.477660">
        <ele>1917.2</ele>
        <time>2013-10-26T09:18:40Z</time>
      </trkpt>
      <trkpt lat="42.888986" lon="0.477596">
        <ele>1918.2</ele>
        <time>2013-10-26T09:18:52Z</time>
      </trkpt>
      <trkpt lat="42.889068" lon="0.477538">
        <ele>1918.6</ele>
        <time>2013-10-26T09:19:03Z</time>
      </trkpt>
      <trkpt lat="42.889144" lon="0.477491">
        <ele>1918.6</ele>
        <time>2013-10-26T09:19:16Z</time>
      </trkpt>
      <trkpt lat="42.889204" lon="0.477576">
        <ele>1919.8</ele>
        <time>2013-10-26T09:19:31Z</time>
      </trkpt>
      <trkpt lat="42.889304" lon="0.477583">
        <ele>1923.5</ele>
        <time>2013-10-26T09:19:50Z</time>
      </trkpt>
      <trkpt lat="42.889410" lon="0.477583">
        <ele>1925.1</ele>
        <time>2013-10-26T09:20:03Z</time>
      </trkpt>
      <trkpt lat="42.889505" lon="0.477584">
        <ele>1925.3</ele>
        <time>2013-10-26T09:20:16Z</time>
      </trkpt>
      <trkpt lat="42.889600" lon="0.477533">
        <ele>1927.4</ele>
        <time>2013-10-26T09:20:38Z</time>
      </trkpt>
      <trkpt lat="42.889680" lon="0.477468">
        <ele>1928.2</ele>
        <time>2013-10-26T09:20:51Z</time>
      </trkpt>
      <trkpt lat="42.889768" lon="0.477399">
        <ele>1929.7</ele>
        <time>2013-10-26T09:21:03Z</time>
      </trkpt>
      <trkpt lat="42.889843" lon="0.477325">
        <ele>1931.6</ele>
        <time>2013-10-26T09:21:18Z</time>
      </trkpt>
      <trkpt lat="42.889934" lon="0.477259">
        <ele>1934.7</ele>
        <time>2013-10-26T09:21:36Z</time>
      </trkpt>
      <trkpt lat="42.890015" lon="0.477205">
        <ele>1937.5</ele>
        <time>2013-10-26T09:21:54Z</time>
      </trkpt>
      <trkpt lat="42.890106" lon="0.477162">
        <ele>1940.3</ele>
        <time>2013-10-26T09:22:13Z</time>
      </trkpt>
      <trkpt lat="42.890191" lon="0.477171">
        <ele>1943.5</ele>
        <time>2013-10-26T09:22:31Z</time>
      </trkpt>
      <trkpt lat="42.890245" lon="0.477265">
        <ele>1944.8</ele>
        <time>2013-10-26T09:22:44Z</time>
      </trkpt>
      <trkpt lat="42.890318" lon="0.477255">
        <ele>1947.9</ele>
        <time>2013-10-26T09:23:04Z</time>
      </trkpt>
      <trkpt lat="42.890401" lon="0.477258">
        <ele>1950.8</ele>
        <time>2013-10-26T09:23:22Z</time>
      </trkpt>
      <trkpt lat="42.890472" lon="0.477194">
        <ele>1956.4</ele>
        <time>2013-10-26T09:23:50Z</time>
      </trkpt>
      <trkpt lat="42.890516" lon="0.477165">
        <ele>1959.5</ele>
        <time>2013-10-26T09:24:12Z</time>
      </trkpt>
      <trkpt lat="42.890585" lon="0.477144">
        <ele>1963.8</ele>
        <time>2013-10-26T09:24:34Z</time>
      </trkpt>
      <trkpt lat="42.890651" lon="0.477154">
        <ele>1969.0</ele>
        <time>2013-10-26T09:25:00Z</time>
      </trkpt>
      <trkpt lat="42.890707" lon="0.477167">
        <ele>1973.5</ele>
        <time>2013-10-26T09:25:25Z</time>
      </trkpt>
      <trkpt lat="42.890781" lon="0.477148">
        <ele>1978.2</ele>
        <time>2013-10-26T09:25:56Z</time>
      </trkpt>
      <trkpt lat="42.890853" lon="0.477157">
        <ele>1982.7</ele>
        <time>2013-10-26T09:26:23Z</time>
      </trkpt>
      <trkpt lat="42.890924" lon="0.477080">
        <ele>1985.9</ele>
        <time>2013-10-26T09:26:41Z</time>
      </trkpt>
      <trkpt lat="42.890998" lon="0.477044">
        <ele>1990.2</ele>
        <time>2013-10-26T09:27:03Z</time>
      </trkpt>
      <trkpt lat="42.891065" lon="0.477016">
        <ele>1993.6</ele>
        <time>2013-10-26T09:27:21Z</time>
      </trkpt>
      <trkpt lat="42.891066" lon="0.477067">
        <ele>1996.4</ele>
        <time>2013-10-26T09:33:39Z</time>
      </trkpt>
      <trkpt lat="42.891100" lon="0.476990">
        <ele>1998.3</ele>
        <time>2013-10-26T09:34:46Z</time>
      </trkpt>
      <trkpt lat="42.891127" lon="0.476871">
        <ele>2001.3</ele>
        <time>2013-10-26T09:35:05Z</time>
      </trkpt>
      <trkpt lat="42.891131" lon="0.476744">
        <ele>2004.3</ele>
        <time>2013-10-26T09:35:22Z</time>
      </trkpt>
      <trkpt lat="42.891152" lon="0.476618">
        <ele>2007.0</ele>
        <time>2013-10-26T09:35:40Z</time>
      </trkpt>
      <trkpt lat="42.891160" lon="0.476490">
        <ele>2010.5</ele>
        <time>2013-10-26T09:36:00Z</time>
      </trkpt>
      <trkpt lat="42.891167" lon="0.476370">
        <ele>2015.0</ele>
        <time>2013-10-26T09:36:26Z</time>
      </trkpt>
      <trkpt lat="42.891191" lon="0.476257">
        <ele>2019.0</ele>
        <time>2013-10-26T09:36:49Z</time>
      </trkpt>
      <trkpt lat="42.891199" lon="0.476137">
        <ele>2023.1</ele>
        <time>2013-10-26T09:37:09Z</time>
      </trkpt>
      <trkpt lat="42.891158" lon="0.476033">
        <ele>2026.8</ele>
        <time>2013-10-26T09:37:29Z</time>
      </trkpt>
      <trkpt lat="42.891201" lon="0.475931">
        <ele>2030.4</ele>
        <time>2013-10-26T09:37:48Z</time>
      </trkpt>
      <trkpt lat="42.891247" lon="0.475831">
        <ele>2033.6</ele>
        <time>2013-10-26T09:38:07Z</time>
      </trkpt>
      <trkpt lat="42.891298" lon="0.475728">
        <ele>2037.6</ele>
        <time>2013-10-26T09:38:31Z</time>
      </trkpt>
      <trkpt lat="42.891355" lon="0.475640">
        <ele>2041.3</ele>
        <time>2013-10-26T09:38:52Z</time>
      </trkpt>
      <trkpt lat="42.891366" lon="0.475519">
        <ele>2044.9</ele>
        <time>2013-10-26T09:39:09Z</time>
      </trkpt>
      <trkpt lat="42.891363" lon="0.475405">
        <ele>2048.8</ele>
        <time>2013-10-26T09:39:57Z</time>
      </trkpt>
      <trkpt lat="42.891352" lon="0.475312">
        <ele>2053.2</ele>
        <time>2013-10-26T09:41:01Z</time>
      </trkpt>
      <trkpt lat="42.891368" lon="0.475178">
        <ele>2056.2</ele>
        <time>2013-10-26T09:41:20Z</time>
      </trkpt>
      <trkpt lat="42.891383" lon="0.475061">
        <ele>2059.1</ele>
        <time>2013-10-26T09:41:37Z</time>
      </trkpt>
      <trkpt lat="42.891391" lon="0.474931">
        <ele>2061.9</ele>
        <time>2013-10-26T09:41:52Z</time>
      </trkpt>
      <trkpt lat="42.891408" lon="0.474802">
        <ele>2063.6</ele>
        <time>2013-10-26T09:42:06Z</time>
      </trkpt>
      <trkpt lat="42.891421" lon="0.474684">
        <ele>2066.6</ele>
        <time>2013-10-26T09:42:21Z</time>
      </trkpt>
      <trkpt lat="42.891437" lon="0.474567">
        <ele>2068.9</ele>
        <time>2013-10-26T09:42:36Z</time>
      </trkpt>
      <trkpt lat="42.891431" lon="0.474438">
        <ele>2071.2</ele>
        <time>2013-10-26T09:42:52Z</time>
      </trkpt>
      <trkpt lat="42.891433" lon="0.474307">
        <ele>2074.0</ele>
        <time>2013-10-26T09:43:07Z</time>
      </trkpt>
      <trkpt lat="42.891456" lon="0.474172">
        <ele>2076.8</ele>
        <time>2013-10-26T09:43:24Z</time>
      </trkpt>
      <trkpt lat="42.891469" lon="0.474052">
        <ele>2080.1</ele>
        <time>2013-10-26T09:43:40Z</time>
      </trkpt>
      <trkpt lat="42.891466" lon="0.473931">
        <ele>2083.2</ele>
        <time>2013-10-26T09:43:57Z</time>
      </trkpt>
      <trkpt lat="42.891492" lon="0.473810">
        <ele>2086.4</ele>
        <time>2013-10-26T09:44:15Z</time>
      </trkpt>
      <trkpt lat="42.891532" lon="0.473693">
        <ele>2088.8</ele>
        <time>2013-10-26T09:44:29Z</time>
      </trkpt>
      <trkpt lat="42.891568" lon="0.473583">
        <ele>2091.4</ele>
        <time>2013-10-26T09:44:52Z</time>
      </trkpt>
      <trkpt lat="42.891627" lon="0.473470">
        <ele>2092.9</ele>
        <time>2013-10-26T09:45:05Z</time>
      </trkpt>
      <trkpt lat="42.891682" lon="0.473377">
        <ele>2093.7</ele>
        <time>2013-10-26T09:45:16Z</time>
      </trkpt>
      <trkpt lat="42.891743" lon="0.473285">
        <ele>2093.1</ele>
        <time>2013-10-26T09:45:27Z</time>
      </trkpt>
      <trkpt lat="42.891829" lon="0.473208">
        <ele>2093.0</ele>
        <time>2013-10-26T09:45:39Z</time>
      </trkpt>
      <trkpt lat="42.891914" lon="0.473154">
        <ele>2092.9</ele>
        <time>2013-10-26T09:45:48Z</time>
      </trkpt>
      <trkpt lat="42.892008" lon="0.473106">
        <ele>2093.6</ele>
        <time>2013-10-26T09:46:01Z</time>
      </trkpt>
      <trkpt lat="42.892090" lon="0.473038">
        <ele>2095.0</ele>
        <time>2013-10-26T09:46:15Z</time>
      </trkpt>
      <trkpt lat="42.892175" lon="0.472970">
        <ele>2096.6</ele>
        <time>2013-10-26T09:46:28Z</time>
      </trkpt>
      <trkpt lat="42.892261" lon="0.472907">
        <ele>2097.3</ele>
        <time>2013-10-26T09:46:39Z</time>
      </trkpt>
      <trkpt lat="42.892353" lon="0.472848">
        <ele>2097.9</ele>
        <time>2013-10-26T09:46:51Z</time>
      </trkpt>
      <trkpt lat="42.892396" lon="0.472827">
        <ele>2096.5</ele>
        <time>2013-10-26T09:53:33Z</time>
      </trkpt>
      <trkpt lat="42.892308" lon="0.472886">
        <ele>2097.1</ele>
        <time>2013-10-26T09:54:06Z</time>
      </trkpt>
      <trkpt lat="42.892216" lon="0.472919">
        <ele>2096.7</ele>
        <time>2013-10-26T09:54:17Z</time>
      </trkpt>
      <trkpt lat="42.892126" lon="0.472952">
        <ele>2095.4</ele>
        <time>2013-10-26T09:54:27Z</time>
      </trkpt>
      <trkpt lat="42.892042" lon="0.473030">
        <ele>2094.6</ele>
        <time>2013-10-26T09:54:40Z</time>
      </trkpt>
      <trkpt lat="42.891949" lon="0.473095">
        <ele>2093.4</ele>
        <time>2013-10-26T09:54:50Z</time>
      </trkpt>
      <trkpt lat="42.891872" lon="0.473148">
        <ele>2092.3</ele>
        <time>2013-10-26T09:55:00Z</time>
      </trkpt>
      <trkpt lat="42.891786" lon="0.473184">
        <ele>2092.0</ele>
        <time>2013-10-26T09:55:11Z</time>
      </trkpt>
      <trkpt lat="42.891720" lon="0.473255">
        <ele>2091.9</ele>
        <time>2013-10-26T09:55:22Z</time>
      </trkpt>
      <trkpt lat="42.891650" lon="0.473341">
        <ele>2092.4</ele>
        <time>2013-10-26T09:55:34Z</time>
      </trkpt>
      <trkpt lat="42.891563" lon="0.473401">
        <ele>2092.7</ele>
        <time>2013-10-26T09:55:45Z</time>
      </trkpt>
      <trkpt lat="42.891483" lon="0.473485">
        <ele>2092.5</ele>
        <time>2013-10-26T09:55:55Z</time>
      </trkpt>
      <trkpt lat="42.891408" lon="0.473553">
        <ele>2092.2</ele>
        <time>2013-10-26T09:56:05Z</time>
      </trkpt>
      <trkpt lat="42.891336" lon="0.473620">
        <ele>2092.3</ele>
        <time>2013-10-26T09:56:15Z</time>
      </trkpt>
      <trkpt lat="42.891245" lon="0.473648">
        <ele>2091.1</ele>
        <time>2013-10-26T09:56:27Z</time>
      </trkpt>
      <trkpt lat="42.891155" lon="0.473647">
        <ele>2087.4</ele>
        <time>2013-10-26T09:56:39Z</time>
      </trkpt>
      <trkpt lat="42.891075" lon="0.473674">
        <ele>2082.5</ele>
        <time>2013-10-26T09:56:53Z</time>
      </trkpt>
      <trkpt lat="42.891013" lon="0.473736">
        <ele>2077.7</ele>
        <time>2013-10-26T09:57:08Z</time>
      </trkpt>
      <trkpt lat="42.890915" lon="0.473742">
        <ele>2074.1</ele>
        <time>2013-10-26T09:57:20Z</time>
      </trkpt>
      <trkpt lat="42.890835" lon="0.473774">
        <ele>2069.0</ele>
        <time>2013-10-26T09:57:34Z</time>
      </trkpt>
      <trkpt lat="42.890752" lon="0.473812">
        <ele>2064.2</ele>
        <time>2013-10-26T09:57:47Z</time>
      </trkpt>
      <trkpt lat="42.890675" lon="0.473834">
        <ele>2060.8</ele>
        <time>2013-10-26T09:57:59Z</time>
      </trkpt>
      <trkpt lat="42.890620" lon="0.473810">
        <ele>2057.8</ele>
        <time>2013-10-26T09:59:55Z</time>
      </trkpt>
      <trkpt lat="42.890519" lon="0.473816">
        <ele>2056.1</ele>
        <time>2013-10-26T10:00:09Z</time>
      </trkpt>
      <trkpt lat="42.890426" lon="0.473865">
        <ele>2052.7</ele>
        <time>2013-10-26T10:00:21Z</time>
      </trkpt>
      <trkpt lat="42.890327" lon="0.473892">
        <ele>2049.7</ele>
        <time>2013-10-26T10:00:33Z</time>
      </trkpt>
      <trkpt lat="42.890255" lon="0.473950">
        <ele>2046.8</ele>
        <time>2013-10-26T10:00:44Z</time>
      </trkpt>
      <trkpt lat="42.890175" lon="0.474029">
        <ele>2045.3</ele>
        <time>2013-10-26T10:00:54Z</time>
      </trkpt>
      <trkpt lat="42.890097" lon="0.474108">
        <ele>2044.1</ele>
        <time>2013-10-26T10:01:02Z</time>
      </trkpt>
      <trkpt lat="42.890011" lon="0.474175">
        <ele>2042.8</ele>
        <time>2013-10-26T10:01:11Z</time>
      </trkpt>
      <trkpt lat="42.889926" lon="0.474219">
        <ele>2041.2</ele>
        <time>2013-10-26T10:01:21Z</time>
      </trkpt>
      <trkpt lat="42.889851" lon="0.474283">
        <ele>2039.1</ele>
        <time>2013-10-26T10:01:31Z</time>
      </trkpt>
      <trkpt lat="42.889766" lon="0.474350">
        <ele>2036.6</ele>
        <time>2013-10-26T10:01:40Z</time>
      </trkpt>
      <trkpt lat="42.889684" lon="0.474410">
        <ele>2034.3</ele>
        <time>2013-10-26T10:01:49Z</time>
      </trkpt>
      <trkpt lat="42.889597" lon="0.474461">
        <ele>2032.3</ele>
        <time>2013-10-26T10:01:58Z</time>
      </trkpt>
      <trkpt lat="42.889506" lon="0.474499">
        <ele>2030.1</ele>
        <time>2013-10-26T10:02:07Z</time>
      </trkpt>
      <trkpt lat="42.889439" lon="0.474566">
        <ele>2027.7</ele>
        <time>2013-10-26T10:02:17Z</time>
      </trkpt>
      <trkpt lat="42.889358" lon="0.474637">
        <ele>2024.2</ele>
        <time>2013-10-26T10:02:28Z</time>
      </trkpt>
      <trkpt lat="42.889275" lon="0.474654">
        <ele>2021.7</ele>
        <time>2013-10-26T10:02:39Z</time>
      </trkpt>
      <trkpt lat="42.889223" lon="0.474703">
        <ele>2018.5</ele>
        <time>2013-10-26T10:02:50Z</time>
      </trkpt>
      <trkpt lat="42.889131" lon="0.474690">
        <ele>2015.3</ele>
        <time>2013-10-26T10:03:00Z</time>
      </trkpt>
      <trkpt lat="42.889029" lon="0.474744">
        <ele>2012.1</ele>
        <time>2013-10-26T10:03:10Z</time>
      </trkpt>
      <trkpt lat="42.888938" lon="0.474784">
        <ele>2009.4</ele>
        <time>2013-10-26T10:03:33Z</time>
      </trkpt>
      <trkpt lat="42.888848" lon="0.474790">
        <ele>2009.0</ele>
        <time>2013-10-26T10:03:42Z</time>
      </trkpt>
      <trkpt lat="42.888756" lon="0.474801">
        <ele>2008.0</ele>
        <time>2013-10-26T10:03:51Z</time>
      </trkpt>
      <trkpt lat="42.888662" lon="0.474817">
        <ele>2006.6</ele>
        <time>2013-10-26T10:04:00Z</time>
      </trkpt>
      <trkpt lat="42.888565" lon="0.474804">
        <ele>2005.3</ele>
        <time>2013-10-26T10:04:09Z</time>
      </trkpt>
      <trkpt lat="42.888476" lon="0.474789">
        <ele>2005.0</ele>
        <time>2013-10-26T10:04:17Z</time>
      </trkpt>
      <trkpt lat="42.888382" lon="0.474771">
        <ele>2005.0</ele>
        <time>2013-10-26T10:04:26Z</time>
      </trkpt>
      <trkpt lat="42.888295" lon="0.474772">
        <ele>2005.3</ele>
        <time>2013-10-26T10:04:35Z</time>
      </trkpt>
      <trkpt lat="42.888197" lon="0.474746">
        <ele>2006.1</ele>
        <time>2013-10-26T10:04:46Z</time>
      </trkpt>
      <trkpt lat="42.888103" lon="0.474727">
        <ele>2007.2</ele>
        <time>2013-10-26T10:04:58Z</time>
      </trkpt>
      <trkpt lat="42.888010" lon="0.474711">
        <ele>2008.3</ele>
        <time>2013-10-26T10:05:08Z</time>
      </trkpt>
      <trkpt lat="42.887916" lon="0.474703">
        <ele>2009.2</ele>
        <time>2013-10-26T10:05:18Z</time>
      </trkpt>
      <trkpt lat="42.887813" lon="0.474705">
        <ele>2010.5</ele>
        <time>2013-10-26T10:05:30Z</time>
      </trkpt>
      <trkpt lat="42.887711" lon="0.474701">
        <ele>2012.5</ele>
        <time>2013-10-26T10:05:44Z</time>
      </trkpt>
      <trkpt lat="42.887625" lon="0.474657">
        <ele>2015.8</ele>
        <time>2013-10-26T10:05:59Z</time>
      </trkpt>
      <trkpt lat="42.887545" lon="0.474626">
        <ele>2018.6</ele>
        <time>2013-10-26T10:06:15Z</time>
      </trkpt>
      <trkpt lat="42.887458" lon="0.474669">
        <ele>2021.5</ele>
        <time>2013-10-26T10:06:32Z</time>
      </trkpt>
      <trkpt lat="42.887355" lon="0.474665">
        <ele>2023.3</ele>
        <time>2013-10-26T10:06:46Z</time>
      </trkpt>
      <trkpt lat="42.887237" lon="0.474664">
        <ele>2024.8</ele>
        <time>2013-10-26T10:06:59Z</time>
      </trkpt>
      <trkpt lat="42.887146" lon="0.474688">
        <ele>2026.8</ele>
        <time>2013-10-26T10:07:14Z</time>
      </trkpt>
      <trkpt lat="42.887055" lon="0.474732">
        <ele>2028.9</ele>
        <time>2013-10-26T10:07:29Z</time>
      </trkpt>
      <trkpt lat="42.886968" lon="0.474771">
        <ele>2030.6</ele>
        <time>2013-10-26T10:07:43Z</time>
      </trkpt>
      <trkpt lat="42.886882" lon="0.474837">
        <ele>2031.9</ele>
        <time>2013-10-26T10:07:55Z</time>
      </trkpt>
      <trkpt lat="42.886810" lon="0.474915">
        <ele>2033.7</ele>
        <time>2013-10-26T10:08:06Z</time>
      </trkpt>
      <trkpt lat="42.886725" lon="0.474965">
        <ele>2034.7</ele>
        <time>2013-10-26T10:08:18Z</time>
      </trkpt>
      <trkpt lat="42.886629" lon="0.475013">
        <ele>2035.3</ele>
        <time>2013-10-26T10:08:29Z</time>
      </trkpt>
      <trkpt lat="42.886534" lon="0.475070">
        <ele>2035.3</ele>
        <time>2013-10-26T10:08:40Z</time>
      </trkpt>
      <trkpt lat="42.886447" lon="0.475130">
        <ele>2036.1</ele>
        <time>2013-10-26T10:08:51Z</time>
      </trkpt>
      <trkpt lat="42.886358" lon="0.475182">
        <ele>2036.9</ele>
        <time>2013-10-26T10:09:01Z</time>
      </trkpt>
      <trkpt lat="42.886265" lon="0.475249">
        <ele>2038.7</ele>
        <time>2013-10-26T10:09:14Z</time>
      </trkpt>
      <trkpt lat="42.886181" lon="0.475312">
        <ele>2040.2</ele>
        <time>2013-10-26T10:09:26Z</time>
      </trkpt>
      <trkpt lat="42.886131" lon="0.475368">
        <ele>2042.3</ele>
        <time>2013-10-26T10:11:19Z</time>
      </trkpt>
      <trkpt lat="42.886054" lon="0.475430">
        <ele>2043.6</ele>
        <time>2013-10-26T10:11:32Z</time>
      </trkpt>
      <trkpt lat="42.885952" lon="0.475417">
        <ele>2044.1</ele>
        <time>2013-10-26T10:11:44Z</time>
      </trkpt>
      <trkpt lat="42.885853" lon="0.475391">
        <ele>2044.7</ele>
        <time>2013-10-26T10:11:55Z</time>
      </trkpt>
      <trkpt lat="42.885753" lon="0.475357">
        <ele>2045.0</ele>
        <time>2013-10-26T10:12:06Z</time>
      </trkpt>
      <trkpt lat="42.885667" lon="0.475353">
        <ele>2045.0</ele>
        <time>2013-10-26T10:12:16Z</time>
      </trkpt>
      <trkpt lat="42.885575" lon="0.475376">
        <ele>2045.5</ele>
        <time>2013-10-26T10:12:27Z</time>
      </trkpt>
      <trkpt lat="42.885492" lon="0.475433">
        <ele>2046.4</ele>
        <time>2013-10-26T10:12:39Z</time>
      </trkpt>
      <trkpt lat="42.885393" lon="0.475463">
        <ele>2046.5</ele>
        <time>2013-10-26T10:12:50Z</time>
      </trkpt>
      <trkpt lat="42.885311" lon="0.475504">
        <ele>2046.0</ele>
        <time>2013-10-26T10:13:00Z</time>
      </trkpt>
      <trkpt lat="42.885219" lon="0.475546">
        <ele>2044.8</ele>
        <time>2013-10-26T10:13:11Z</time>
      </trkpt>
      <trkpt lat="42.885137" lon="0.475599">
        <ele>2043.4</ele>
        <time>2013-10-26T10:13:21Z</time>
      </trkpt>
      <trkpt lat="42.885051" lon="0.475641">
        <ele>2041.8</ele>
        <time>2013-10-26T10:13:31Z</time>
      </trkpt>
      <trkpt lat="42.884966" lon="0.475681">
        <ele>2040.9</ele>
        <time>2013-10-26T10:13:41Z</time>
      </trkpt>
      <trkpt lat="42.884936" lon="0.475759">
        <ele>2041.4</ele>
        <time>2013-10-26T10:14:10Z</time>
      </trkpt>
      <trkpt lat="42.884858" lon="0.475835">
        <ele>2041.8</ele>
        <time>2013-10-26T10:14:22Z</time>
      </trkpt>
      <trkpt lat="42.884806" lon="0.475942">
        <ele>2042.6</ele>
        <time>2013-10-26T10:14:32Z</time>
      </trkpt>
      <trkpt lat="42.884744" lon="0.476033">
        <ele>2043.7</ele>
        <time>2013-10-26T10:14:43Z</time>
      </trkpt>
      <trkpt lat="42.884671" lon="0.475990">
        <ele>2045.8</ele>
        <time>2013-10-26T10:16:17Z</time>
      </trkpt>
      <trkpt lat="42.884628" lon="0.475994">
        <ele>2046.5</ele>
        <time>2013-10-26T10:17:20Z</time>
      </trkpt>
      <trkpt lat="42.884533" lon="0.476025">
        <ele>2047.1</ele>
        <time>2013-10-26T10:17:47Z</time>
      </trkpt>
      <trkpt lat="42.884441" lon="0.476045">
        <ele>2047.3</ele>
        <time>2013-10-26T10:18:01Z</time>
      </trkpt>
      <trkpt lat="42.884352" lon="0.476101">
        <ele>2046.3</ele>
        <time>2013-10-26T10:18:14Z</time>
      </trkpt>
      <trkpt lat="42.884279" lon="0.476175">
        <ele>2044.7</ele>
        <time>2013-10-26T10:18:27Z</time>
      </trkpt>
      <trkpt lat="42.884183" lon="0.476187">
        <ele>2043.5</ele>
        <time>2013-10-26T10:18:36Z</time>
      </trkpt>
      <trkpt lat="42.884088" lon="0.476226">
        <ele>2041.9</ele>
        <time>2013-10-26T10:18:48Z</time>
      </trkpt>
      <trkpt lat="42.884007" lon="0.476295">
        <ele>2040.6</ele>
        <time>2013-10-26T10:18:59Z</time>
      </trkpt>
      <trkpt lat="42.883913" lon="0.476354">
        <ele>2038.9</ele>
        <time>2013-10-26T10:19:09Z</time>
      </trkpt>
      <trkpt lat="42.883847" lon="0.476445">
        <ele>2037.8</ele>
        <time>2013-10-26T10:19:19Z</time>
      </trkpt>
      <trkpt lat="42.883752" lon="0.476499">
        <ele>2037.0</ele>
        <time>2013-10-26T10:19:29Z</time>
      </trkpt>
      <trkpt lat="42.883650" lon="0.476537">
        <ele>2035.7</ele>
        <time>2013-10-26T10:19:40Z</time>
      </trkpt>
      <trkpt lat="42.883569" lon="0.476588">
        <ele>2035.0</ele>
        <time>2013-10-26T10:19:50Z</time>
      </trkpt>
      <trkpt lat="42.883481" lon="0.476648">
        <ele>2034.5</ele>
        <time>2013-10-26T10:20:00Z</time>
      </trkpt>
      <trkpt lat="42.883389" lon="0.476693">
        <ele>2033.7</ele>
        <time>2013-10-26T10:20:09Z</time>
      </trkpt>
      <trkpt lat="42.883307" lon="0.476734">
        <ele>2032.6</ele>
        <time>2013-10-26T10:20:19Z</time>
      </trkpt>
      <trkpt lat="42.883223" lon="0.476781">
        <ele>2031.1</ele>
        <time>2013-10-26T10:20:30Z</time>
      </trkpt>
      <trkpt lat="42.883133" lon="0.476827">
        <ele>2029.2</ele>
        <time>2013-10-26T10:20:40Z</time>
      </trkpt>
      <trkpt lat="42.883035" lon="0.476847">
        <ele>2027.0</ele>
        <time>2013-10-26T10:20:50Z</time>
      </trkpt>
      <trkpt lat="42.882938" lon="0.476873">
        <ele>2026.0</ele>
        <time>2013-10-26T10:20:59Z</time>
      </trkpt>
      <trkpt lat="42.882846" lon="0.476926">
        <ele>2025.0</ele>
        <time>2013-10-26T10:21:08Z</time>
      </trkpt>
      <trkpt lat="42.882746" lon="0.476946">
        <ele>2024.9</ele>
        <time>2013-10-26T10:21:17Z</time>
      </trkpt>
      <trkpt lat="42.882650" lon="0.476978">
        <ele>2026.3</ele>
        <time>2013-10-26T10:21:28Z</time>
      </trkpt>
      <trkpt lat="42.882550" lon="0.477002">
        <ele>2028.8</ele>
        <time>2013-10-26T10:21:41Z</time>
      </trkpt>
      <trkpt lat="42.882443" lon="0.476997">
        <ele>2031.2</ele>
        <time>2013-10-26T10:21:53Z</time>
      </trkpt>
      <trkpt lat="42.882362" lon="0.476999">
        <ele>2033.6</ele>
        <time>2013-10-26T10:22:08Z</time>
      </trkpt>
      <trkpt lat="42.882296" lon="0.476975">
        <ele>2034.8</ele>
        <time>2013-10-26T10:23:03Z</time>
      </trkpt>
      <trkpt lat="42.882194" lon="0.477002">
        <ele>2035.8</ele>
        <time>2013-10-26T10:23:18Z</time>
      </trkpt>
      <trkpt lat="42.882098" lon="0.477013">
        <ele>2037.9</ele>
        <time>2013-10-26T10:23:30Z</time>
      </trkpt>
      <trkpt lat="42.881999" lon="0.477038">
        <ele>2039.9</ele>
        <time>2013-10-26T10:23:42Z</time>
      </trkpt>
      <trkpt lat="42.881900" lon="0.477068">
        <ele>2042.5</ele>
        <time>2013-10-26T10:23:55Z</time>
      </trkpt>
      <trkpt lat="42.881794" lon="0.477055">
        <ele>2044.4</ele>
        <time>2013-10-26T10:24:07Z</time>
      </trkpt>
      <trkpt lat="42.881694" lon="0.477051">
        <ele>2045.6</ele>
        <time>2013-10-26T10:24:17Z</time>
      </trkpt>
      <trkpt lat="42.881598" lon="0.477058">
        <ele>2045.4</ele>
        <time>2013-10-26T10:24:26Z</time>
      </trkpt>
      <trkpt lat="42.881510" lon="0.477098">
        <ele>2045.3</ele>
        <time>2013-10-26T10:24:35Z</time>
      </trkpt>
      <trkpt lat="42.881408" lon="0.477124">
        <ele>2045.5</ele>
        <time>2013-10-26T10:24:44Z</time>
      </trkpt>
      <trkpt lat="42.881317" lon="0.477148">
        <ele>2045.8</ele>
        <time>2013-10-26T10:24:53Z</time>
      </trkpt>
      <trkpt lat="42.881226" lon="0.477168">
        <ele>2046.1</ele>
        <time>2013-10-26T10:25:02Z</time>
      </trkpt>
      <trkpt lat="42.881125" lon="0.477198">
        <ele>2046.7</ele>
        <time>2013-10-26T10:25:13Z</time>
      </trkpt>
      <trkpt lat="42.881041" lon="0.477234">
        <ele>2048.2</ele>
        <time>2013-10-26T10:25:32Z</time>
      </trkpt>
      <trkpt lat="42.880973" lon="0.477266">
        <ele>2049.2</ele>
        <time>2013-10-26T10:26:30Z</time>
      </trkpt>
      <trkpt lat="42.880877" lon="0.477297">
        <ele>2050.4</ele>
        <time>2013-10-26T10:26:44Z</time>
      </trkpt>
      <trkpt lat="42.880790" lon="0.477331">
        <ele>2051.3</ele>
        <time>2013-10-26T10:26:55Z</time>
      </trkpt>
      <trkpt lat="42.880685" lon="0.477323">
        <ele>2052.0</ele>
        <time>2013-10-26T10:27:08Z</time>
      </trkpt>
      <trkpt lat="42.880584" lon="0.477311">
        <ele>2052.4</ele>
        <time>2013-10-26T10:27:21Z</time>
      </trkpt>
      <trkpt lat="42.880483" lon="0.477293">
        <ele>2053.9</ele>
        <time>2013-10-26T10:27:35Z</time>
      </trkpt>
      <trkpt lat="42.880396" lon="0.477262">
        <ele>2056.5</ele>
        <time>2013-10-26T10:27:51Z</time>
      </trkpt>
      <trkpt lat="42.880296" lon="0.477248">
        <ele>2059.4</ele>
        <time>2013-10-26T10:28:08Z</time>
      </trkpt>
      <trkpt lat="42.880202" lon="0.477225">
        <ele>2061.7</ele>
        <time>2013-10-26T10:28:24Z</time>
      </trkpt>
      <trkpt lat="42.880087" lon="0.477221">
        <ele>2063.9</ele>
        <time>2013-10-26T10:28:37Z</time>
      </trkpt>
      <trkpt lat="42.879985" lon="0.477232">
        <ele>2066.3</ele>
        <time>2013-10-26T10:28:51Z</time>
      </trkpt>
      <trkpt lat="42.879872" lon="0.477263">
        <ele>2068.7</ele>
        <time>2013-10-26T10:29:05Z</time>
      </trkpt>
      <trkpt lat="42.879778" lon="0.477306">
        <ele>2070.5</ele>
        <time>2013-10-26T10:29:18Z</time>
      </trkpt>
      <trkpt lat="42.879681" lon="0.477339">
        <ele>2072.5</ele>
        <time>2013-10-26T10:29:31Z</time>
      </trkpt>
      <trkpt lat="42.879584" lon="0.477372">
        <ele>2074.4</ele>
        <time>2013-10-26T10:29:44Z</time>
      </trkpt>
      <trkpt lat="42.879507" lon="0.477421">
        <ele>2076.9</ele>
        <time>2013-10-26T10:29:57Z</time>
      </trkpt>
      <trkpt lat="42.879413" lon="0.477462">
        <ele>2079.4</ele>
        <time>2013-10-26T10:30:12Z</time>
      </trkpt>
      <trkpt lat="42.879328" lon="0.477411">
        <ele>2081.5</ele>
        <time>2013-10-26T10:30:24Z</time>
      </trkpt>
      <trkpt lat="42.879233" lon="0.477404">
        <ele>2083.4</ele>
        <time>2013-10-26T10:30:36Z</time>
      </trkpt>
      <trkpt lat="42.879137" lon="0.477398">
        <ele>2085.7</ele>
        <time>2013-10-26T10:30:49Z</time>
      </trkpt>
      <trkpt lat="42.879048" lon="0.477407">
        <ele>2088.5</ele>
        <time>2013-10-26T10:31:04Z</time>
      </trkpt>
      <trkpt lat="42.878961" lon="0.477426">
        <ele>2091.0</ele>
        <time>2013-10-26T10:31:18Z</time>
      </trkpt>
      <trkpt lat="42.878868" lon="0.477432">
        <ele>2093.4</ele>
        <time>2013-10-26T10:31:31Z</time>
      </trkpt>
      <trkpt lat="42.878772" lon="0.477439">
        <ele>2096.4</ele>
        <time>2013-10-26T10:31:45Z</time>
      </trkpt>
      <trkpt lat="42.878678" lon="0.477423">
        <ele>2098.6</ele>
        <time>2013-10-26T10:31:57Z</time>
      </trkpt>
      <trkpt lat="42.878587" lon="0.477371">
        <ele>2099.8</ele>
        <time>2013-10-26T10:32:08Z</time>
      </trkpt>
      <trkpt lat="42.878499" lon="0.477353">
        <ele>2101.8</ele>
        <time>2013-10-26T10:32:20Z</time>
      </trkpt>
      <trkpt lat="42.878405" lon="0.477311">
        <ele>2103.3</ele>
        <time>2013-10-26T10:32:32Z</time>
      </trkpt>
      <trkpt lat="42.878325" lon="0.477321">
        <ele>2103.6</ele>
        <time>2013-10-26T10:32:43Z</time>
      </trkpt>
      <trkpt lat="42.878267" lon="0.477346">
        <ele>2102.8</ele>
        <time>2013-10-26T10:33:15Z</time>
      </trkpt>
      <trkpt lat="42.878185" lon="0.477276">
        <ele>2103.1</ele>
        <time>2013-10-26T10:33:24Z</time>
      </trkpt>
      <trkpt lat="42.878111" lon="0.477196">
        <ele>2104.8</ele>
        <time>2013-10-26T10:33:35Z</time>
      </trkpt>
      <trkpt lat="42.878016" lon="0.477166">
        <ele>2107.5</ele>
        <time>2013-10-26T10:33:49Z</time>
      </trkpt>
      <trkpt lat="42.877921" lon="0.477177">
        <ele>2108.9</ele>
        <time>2013-10-26T10:34:01Z</time>
      </trkpt>
      <trkpt lat="42.877832" lon="0.477149">
        <ele>2109.9</ele>
        <time>2013-10-26T10:34:10Z</time>
      </trkpt>
      <trkpt lat="42.877741" lon="0.477105">
        <ele>2111.3</ele>
        <time>2013-10-26T10:34:20Z</time>
      </trkpt>
      <trkpt lat="42.877656" lon="0.477100">
        <ele>2112.8</ele>
        <time>2013-10-26T10:34:29Z</time>
      </trkpt>
      <trkpt lat="42.877569" lon="0.477083">
        <ele>2114.4</ele>
        <time>2013-10-26T10:34:39Z</time>
      </trkpt>
      <trkpt lat="42.877484" lon="0.477025">
        <ele>2116.2</ele>
        <time>2013-10-26T10:34:50Z</time>
      </trkpt>
      <trkpt lat="42.877400" lon="0.476993">
        <ele>2118.1</ele>
        <time>2013-10-26T10:35:01Z</time>
      </trkpt>
      <trkpt lat="42.877318" lon="0.476917">
        <ele>2119.2</ele>
        <time>2013-10-26T10:35:13Z</time>
      </trkpt>
      <trkpt lat="42.877245" lon="0.476840">
        <ele>2120.4</ele>
        <time>2013-10-26T10:35:24Z</time>
      </trkpt>
      <trkpt lat="42.877171" lon="0.476758">
        <ele>2121.5</ele>
        <time>2013-10-26T10:35:36Z</time>
      </trkpt>
      <trkpt lat="42.877148" lon="0.476730">
        <ele>2124.1</ele>
        <time>2013-10-26T10:36:34Z</time>
      </trkpt>
      <trkpt lat="42.877127" lon="0.476672">
        <ele>2124.3</ele>
        <time>2013-10-26T10:37:56Z</time>
      </trkpt>
      <trkpt lat="42.877089" lon="0.476640">
        <ele>2128.4</ele>
        <time>2013-10-26T11:41:48Z</time>
      </trkpt>
      <trkpt lat="42.877062" lon="0.476606">
        <ele>2128.7</ele>
        <time>2013-10-26T11:43:30Z</time>
      </trkpt>
      <trkpt lat="42.876962" lon="0.476601">
        <ele>2125.6</ele>
        <time>2013-10-26T11:43:56Z</time>
      </trkpt>
      <trkpt lat="42.876869" lon="0.476571">
        <ele>2122.7</ele>
        <time>2013-10-26T11:44:11Z</time>
      </trkpt>
      <trkpt lat="42.876779" lon="0.476554">
        <ele>2119.3</ele>
        <time>2013-10-26T11:44:24Z</time>
      </trkpt>
      <trkpt lat="42.876699" lon="0.476583">
        <ele>2117.6</ele>
        <time>2013-10-26T11:44:37Z</time>
      </trkpt>
      <trkpt lat="42.876601" lon="0.476598">
        <ele>2116.1</ele>
        <time>2013-10-26T11:44:48Z</time>
      </trkpt>
      <trkpt lat="42.876509" lon="0.476591">
        <ele>2114.6</ele>
        <time>2013-10-26T11:44:59Z</time>
      </trkpt>
      <trkpt lat="42.876421" lon="0.476576">
        <ele>2113.5</ele>
        <time>2013-10-26T11:45:10Z</time>
      </trkpt>
      <trkpt lat="42.876333" lon="0.476544">
        <ele>2113.1</ele>
        <time>2013-10-26T11:45:20Z</time>
      </trkpt>
      <trkpt lat="42.876246" lon="0.476513">
        <ele>2112.9</ele>
        <time>2013-10-26T11:45:31Z</time>
      </trkpt>
      <trkpt lat="42.876152" lon="0.476466">
        <ele>2112.4</ele>
        <time>2013-10-26T11:45:43Z</time>
      </trkpt>
      <trkpt lat="42.876060" lon="0.476431">
        <ele>2111.6</ele>
        <time>2013-10-26T11:45:53Z</time>
      </trkpt>
      <trkpt lat="42.875965" lon="0.476390">
        <ele>2110.8</ele>
        <time>2013-10-26T11:46:03Z</time>
      </trkpt>
      <trkpt lat="42.875881" lon="0.476325">
        <ele>2108.6</ele>
        <time>2013-10-26T11:46:46Z</time>
      </trkpt>
      <trkpt lat="42.875776" lon="0.476286">
        <ele>2107.8</ele>
        <time>2013-10-26T11:46:56Z</time>
      </trkpt>
      <trkpt lat="42.875706" lon="0.476217">
        <ele>2106.2</ele>
        <time>2013-10-26T11:47:09Z</time>
      </trkpt>
      <trkpt lat="42.875609" lon="0.476213">
        <ele>2105.9</ele>
        <time>2013-10-26T11:47:18Z</time>
      </trkpt>
      <trkpt lat="42.875515" lon="0.476209">
        <ele>2105.8</ele>
        <time>2013-10-26T11:47:51Z</time>
      </trkpt>
      <trkpt lat="42.875437" lon="0.476158">
        <ele>2103.8</ele>
        <time>2013-10-26T11:48:05Z</time>
      </trkpt>
      <trkpt lat="42.875340" lon="0.476122">
        <ele>2101.3</ele>
        <time>2013-10-26T11:48:17Z</time>
      </trkpt>
      <trkpt lat="42.875245" lon="0.476079">
        <ele>2098.8</ele>
        <time>2013-10-26T11:48:30Z</time>
      </trkpt>
      <trkpt lat="42.875155" lon="0.476053">
        <ele>2097.2</ele>
        <time>2013-10-26T11:48:39Z</time>
      </trkpt>
      <trkpt lat="42.875096" lon="0.475959">
        <ele>2095.6</ele>
        <time>2013-10-26T11:48:48Z</time>
      </trkpt>
      <trkpt lat="42.875026" lon="0.475871">
        <ele>2093.6</ele>
        <time>2013-10-26T11:48:58Z</time>
      </trkpt>
      <trkpt lat="42.874958" lon="0.475775">
        <ele>2091.1</ele>
        <time>2013-10-26T11:49:08Z</time>
      </trkpt>
      <trkpt lat="42.874870" lon="0.475726">
        <ele>2088.9</ele>
        <time>2013-10-26T11:49:18Z</time>
      </trkpt>
      <trkpt lat="42.874789" lon="0.475682">
        <ele>2086.4</ele>
        <time>2013-10-26T11:49:29Z</time>
      </trkpt>
      <trkpt lat="42.874695" lon="0.475697">
        <ele>2084.2</ele>
        <time>2013-10-26T11:49:43Z</time>
      </trkpt>
      <trkpt lat="42.874614" lon="0.475653">
        <ele>2082.2</ele>
        <time>2013-10-26T11:49:55Z</time>
      </trkpt>
      <trkpt lat="42.874578" lon="0.475526">
        <ele>2080.0</ele>
        <time>2013-10-26T11:50:10Z</time>
      </trkpt>
      <trkpt lat="42.874501" lon="0.475447">
        <ele>2077.7</ele>
        <time>2013-10-26T11:50:22Z</time>
      </trkpt>
      <trkpt lat="42.874424" lon="0.475426">
        <ele>2073.5</ele>
        <time>2013-10-26T11:50:49Z</time>
      </trkpt>
      <trkpt lat="42.874339" lon="0.475392">
        <ele>2071.1</ele>
        <time>2013-10-26T11:51:02Z</time>
      </trkpt>
      <trkpt lat="42.874255" lon="0.475350">
        <ele>2066.1</ele>
        <time>2013-10-26T11:51:21Z</time>
      </trkpt>
      <trkpt lat="42.874191" lon="0.475257">
        <ele>2063.0</ele>
        <time>2013-10-26T11:51:35Z</time>
      </trkpt>
      <trkpt lat="42.874111" lon="0.475214">
        <ele>2060.3</ele>
        <time>2013-10-26T11:51:48Z</time>
      </trkpt>
      <trkpt lat="42.874010" lon="0.475234">
        <ele>2057.1</ele>
        <time>2013-10-26T11:52:01Z</time>
      </trkpt>
      <trkpt lat="42.873922" lon="0.475230">
        <ele>2053.8</ele>
        <time>2013-10-26T11:52:14Z</time>
      </trkpt>
      <trkpt lat="42.873859" lon="0.475164">
        <ele>2049.6</ele>
        <time>2013-10-26T11:52:29Z</time>
      </trkpt>
      <trkpt lat="42.873782" lon="0.475228">
        <ele>2046.8</ele>
        <time>2013-10-26T11:52:43Z</time>
      </trkpt>
      <trkpt lat="42.873713" lon="0.475170">
        <ele>2044.1</ele>
        <time>2013-10-26T11:52:56Z</time>
      </trkpt>
      <trkpt lat="42.873629" lon="0.475159">
        <ele>2042.1</ele>
        <time>2013-10-26T11:53:17Z</time>
      </trkpt>
      <trkpt lat="42.873537" lon="0.475139">
        <ele>2039.4</ele>
        <time>2013-10-26T11:53:29Z</time>
      </trkpt>
      <trkpt lat="42.873447" lon="0.475091">
        <ele>2035.7</ele>
        <time>2013-10-26T11:53:42Z</time>
      </trkpt>
      <trkpt lat="42.873354" lon="0.475099">
        <ele>2032.6</ele>
        <time>2013-10-26T11:53:53Z</time>
      </trkpt>
      <trkpt lat="42.873271" lon="0.475044">
        <ele>2030.2</ele>
        <time>2013-10-26T11:54:06Z</time>
      </trkpt>
      <trkpt lat="42.873174" lon="0.475011">
        <ele>2028.3</ele>
        <time>2013-10-26T11:54:18Z</time>
      </trkpt>
      <trkpt lat="42.873090" lon="0.474988">
        <ele>2024.7</ele>
        <time>2013-10-26T11:54:35Z</time>
      </trkpt>
      <trkpt lat="42.873048" lon="0.475046">
        <ele>2022.3</ele>
        <time>2013-10-26T11:55:11Z</time>
      </trkpt>
      <trkpt lat="42.873028" lon="0.475239">
        <ele>2023.4</ele>
        <time>2013-10-26T11:57:16Z</time>
      </trkpt>
      <trkpt lat="42.872973" lon="0.475321">
        <ele>2019.8</ele>
        <time>2013-10-26T11:57:36Z</time>
      </trkpt>
      <trkpt lat="42.872992" lon="0.475397">
        <ele>2015.4</ele>
        <time>2013-10-26T11:57:53Z</time>
      </trkpt>
      <trkpt lat="42.872980" lon="0.475501">
        <ele>2010.8</ele>
        <time>2013-10-26T11:58:13Z</time>
      </trkpt>
      <trkpt lat="42.872926" lon="0.475597">
        <ele>2006.8</ele>
        <time>2013-10-26T11:58:29Z</time>
      </trkpt>
      <trkpt lat="42.872865" lon="0.475692">
        <ele>2003.2</ele>
        <time>2013-10-26T11:58:44Z</time>
      </trkpt>
      <trkpt lat="42.872802" lon="0.475742">
        <ele>1999.3</ele>
        <time>2013-10-26T11:59:22Z</time>
      </trkpt>
      <trkpt lat="42.872730" lon="0.475829">
        <ele>1999.0</ele>
        <time>2013-10-26T11:59:50Z</time>
      </trkpt>
      <trkpt lat="42.872650" lon="0.475880">
        <ele>1996.7</ele>
        <time>2013-10-26T12:00:04Z</time>
      </trkpt>
      <trkpt lat="42.872556" lon="0.475937">
        <ele>1995.5</ele>
        <time>2013-10-26T12:00:33Z</time>
      </trkpt>
      <trkpt lat="42.872515" lon="0.475942">
        <ele>1993.3</ele>
        <time>2013-10-26T12:00:56Z</time>
      </trkpt>
      <trkpt lat="42.872441" lon="0.475920">
        <ele>1989.9</ele>
        <time>2013-10-26T12:01:19Z</time>
      </trkpt>
      <trkpt lat="42.872380" lon="0.475981">
        <ele>1985.2</ele>
        <time>2013-10-26T12:01:52Z</time>
      </trkpt>
      <trkpt lat="42.872356" lon="0.475971">
        <ele>1980.5</ele>
        <time>2013-10-26T12:03:05Z</time>
      </trkpt>
      <trkpt lat="42.872289" lon="0.475923">
        <ele>1976.8</ele>
        <time>2013-10-26T12:03:33Z</time>
      </trkpt>
      <trkpt lat="42.872238" lon="0.476049">
        <ele>1972.6</ele>
        <time>2013-10-26T12:03:52Z</time>
      </trkpt>
      <trkpt lat="42.872157" lon="0.476106">
        <ele>1968.2</ele>
        <time>2013-10-26T12:04:02Z</time>
      </trkpt>
      <trkpt lat="42.872059" lon="0.476155">
        <ele>1964.3</ele>
        <time>2013-10-26T12:04:12Z</time>
      </trkpt>
      <trkpt lat="42.871988" lon="0.476236">
        <ele>1958.5</ele>
        <time>2013-10-26T12:04:28Z</time>
      </trkpt>
      <trkpt lat="42.871951" lon="0.476359">
        <ele>1956.7</ele>
        <time>2013-10-26T12:04:38Z</time>
      </trkpt>
      <trkpt lat="42.871887" lon="0.476455">
        <ele>1954.4</ele>
        <time>2013-10-26T12:04:47Z</time>
      </trkpt>
      <trkpt lat="42.871801" lon="0.476544">
        <ele>1952.8</ele>
        <time>2013-10-26T12:04:55Z</time>
      </trkpt>
      <trkpt lat="42.871728" lon="0.476620">
        <ele>1950.3</ele>
        <time>2013-10-26T12:05:04Z</time>
      </trkpt>
      <trkpt lat="42.871686" lon="0.476690">
        <ele>1947.0</ele>
        <time>2013-10-26T12:05:53Z</time>
      </trkpt>
      <trkpt lat="42.871627" lon="0.476796">
        <ele>1945.6</ele>
        <time>2013-10-26T12:06:03Z</time>
      </trkpt>
      <trkpt lat="42.871575" lon="0.476891">
        <ele>1943.9</ele>
        <time>2013-10-26T12:06:13Z</time>
      </trkpt>
      <trkpt lat="42.871508" lon="0.476956">
        <ele>1942.2</ele>
        <time>2013-10-26T12:06:24Z</time>
      </trkpt>
      <trkpt lat="42.871456" lon="0.477062">
        <ele>1940.4</ele>
        <time>2013-10-26T12:06:33Z</time>
      </trkpt>
      <trkpt lat="42.871402" lon="0.477173">
        <ele>1939.8</ele>
        <time>2013-10-26T12:06:43Z</time>
      </trkpt>
      <trkpt lat="42.871319" lon="0.477233">
        <ele>1939.7</ele>
        <time>2013-10-26T12:06:53Z</time>
      </trkpt>
      <trkpt lat="42.871244" lon="0.477263">
        <ele>1939.3</ele>
        <time>2013-10-26T12:08:15Z</time>
      </trkpt>
      <trkpt lat="42.871151" lon="0.477342">
        <ele>1938.4</ele>
        <time>2013-10-26T12:08:24Z</time>
      </trkpt>
      <trkpt lat="42.871064" lon="0.477395">
        <ele>1937.1</ele>
        <time>2013-10-26T12:08:33Z</time>
      </trkpt>
      <trkpt lat="42.870989" lon="0.477451">
        <ele>1936.0</ele>
        <time>2013-10-26T12:08:44Z</time>
      </trkpt>
      <trkpt lat="42.870908" lon="0.477521">
        <ele>1934.9</ele>
        <time>2013-10-26T12:08:55Z</time>
      </trkpt>
      <trkpt lat="42.870831" lon="0.477587">
        <ele>1933.2</ele>
        <time>2013-10-26T12:09:06Z</time>
      </trkpt>
      <trkpt lat="42.870780" lon="0.477679">
        <ele>1931.5</ele>
        <time>2013-10-26T12:09:16Z</time>
      </trkpt>
      <trkpt lat="42.870712" lon="0.477776">
        <ele>1928.7</ele>
        <time>2013-10-26T12:09:28Z</time>
      </trkpt>
      <trkpt lat="42.870656" lon="0.477863">
        <ele>1926.0</ele>
        <time>2013-10-26T12:09:40Z</time>
      </trkpt>
      <trkpt lat="42.870594" lon="0.477956">
        <ele>1923.5</ele>
        <time>2013-10-26T12:09:50Z</time>
      </trkpt>
      <trkpt lat="42.870548" lon="0.478056">
        <ele>1921.5</ele>
        <time>2013-10-26T12:10:00Z</time>
      </trkpt>
      <trkpt lat="42.870517" lon="0.478179">
        <ele>1918.8</ele>
        <time>2013-10-26T12:10:11Z</time>
      </trkpt>
      <trkpt lat="42.870526" lon="0.478300">
        <ele>1915.2</ele>
        <time>2013-10-26T12:10:22Z</time>
      </trkpt>
      <trkpt lat="42.870540" lon="0.478421">
        <ele>1910.8</ele>
        <time>2013-10-26T12:10:33Z</time>
      </trkpt>
      <trkpt lat="42.870558" lon="0.478543">
        <ele>1906.9</ele>
        <time>2013-10-26T12:10:43Z</time>
      </trkpt>
      <trkpt lat="42.870593" lon="0.478657">
        <ele>1903.2</ele>
        <time>2013-10-26T12:10:53Z</time>
      </trkpt>
      <trkpt lat="42.870624" lon="0.478783">
        <ele>1899.4</ele>
        <time>2013-10-26T12:11:03Z</time>
      </trkpt>
      <trkpt lat="42.870637" lon="0.478907">
        <ele>1895.1</ele>
        <time>2013-10-26T12:11:13Z</time>
      </trkpt>
      <trkpt lat="42.870671" lon="0.479026">
        <ele>1891.6</ele>
        <time>2013-10-26T12:11:24Z</time>
      </trkpt>
      <trkpt lat="42.870720" lon="0.479148">
        <ele>1887.9</ele>
        <time>2013-10-26T12:11:34Z</time>
      </trkpt>
      <trkpt lat="42.870770" lon="0.479253">
        <ele>1884.2</ele>
        <time>2013-10-26T12:11:43Z</time>
      </trkpt>
      <trkpt lat="42.870829" lon="0.479347">
        <ele>1880.9</ele>
        <time>2013-10-26T12:11:52Z</time>
      </trkpt>
      <trkpt lat="42.870910" lon="0.479438">
        <ele>1878.2</ele>
        <time>2013-10-26T12:12:01Z</time>
      </trkpt>
      <trkpt lat="42.870987" lon="0.479504">
        <ele>1875.3</ele>
        <time>2013-10-26T12:12:10Z</time>
      </trkpt>
      <trkpt lat="42.871081" lon="0.479552">
        <ele>1872.4</ele>
        <time>2013-10-26T12:12:20Z</time>
      </trkpt>
      <trkpt lat="42.871164" lon="0.479602">
        <ele>1869.2</ele>
        <time>2013-10-26T12:12:29Z</time>
      </trkpt>
      <trkpt lat="42.871256" lon="0.479632">
        <ele>1867.8</ele>
        <time>2013-10-26T12:12:38Z</time>
      </trkpt>
      <trkpt lat="42.871353" lon="0.479649">
        <ele>1867.9</ele>
        <time>2013-10-26T12:12:49Z</time>
      </trkpt>
      <trkpt lat="42.871460" lon="0.479605">
        <ele>1867.6</ele>
        <time>2013-10-26T12:12:59Z</time>
      </trkpt>
      <trkpt lat="42.871555" lon="0.479600">
        <ele>1867.5</ele>
        <time>2013-10-26T12:13:08Z</time>
      </trkpt>
      <trkpt lat="42.871649" lon="0.479584">
        <ele>1867.5</ele>
        <time>2013-10-26T12:13:18Z</time>
      </trkpt>
      <trkpt lat="42.871738" lon="0.479536">
        <ele>1867.5</ele>
        <time>2013-10-26T12:13:28Z</time>
      </trkpt>
      <trkpt lat="42.871828" lon="0.479498">
        <ele>1867.1</ele>
        <time>2013-10-26T12:13:37Z</time>
      </trkpt>
      <trkpt lat="42.871932" lon="0.479502">
        <ele>1866.6</ele>
        <time>2013-10-26T12:13:46Z</time>
      </trkpt>
      <trkpt lat="42.872029" lon="0.479502">
        <ele>1866.5</ele>
        <time>2013-10-26T12:13:57Z</time>
      </trkpt>
      <trkpt lat="42.872093" lon="0.479586">
        <ele>1864.8</ele>
        <time>2013-10-26T12:14:08Z</time>
      </trkpt>
      <trkpt lat="42.872144" lon="0.479695">
        <ele>1860.9</ele>
        <time>2013-10-26T12:14:18Z</time>
      </trkpt>
      <trkpt lat="42.872161" lon="0.479800">
        <ele>1857.1</ele>
        <time>2013-10-26T12:14:28Z</time>
      </trkpt>
      <trkpt lat="42.872135" lon="0.479921">
        <ele>1853.8</ele>
        <time>2013-10-26T12:14:37Z</time>
      </trkpt>
      <trkpt lat="42.872095" lon="0.480044">
        <ele>1849.2</ele>
        <time>2013-10-26T12:14:47Z</time>
      </trkpt>
      <trkpt lat="42.872110" lon="0.480113">
        <ele>1845.4</ele>
        <time>2013-10-26T12:15:15Z</time>
      </trkpt>
      <trkpt lat="42.872108" lon="0.480110">
        <ele>1845.8</ele>
        <time>2013-10-26T12:16:55Z</time>
      </trkpt>
      <trkpt lat="42.872140" lon="0.480172">
        <ele>1846.2</ele>
        <time>2013-10-26T12:17:16Z</time>
      </trkpt>
      <trkpt lat="42.872225" lon="0.480230">
        <ele>1845.9</ele>
        <time>2013-10-26T12:17:27Z</time>
      </trkpt>
      <trkpt lat="42.872316" lon="0.480252">
        <ele>1845.8</ele>
        <time>2013-10-26T12:17:37Z</time>
      </trkpt>
      <trkpt lat="42.872410" lon="0.480235">
        <ele>1845.6</ele>
        <time>2013-10-26T12:17:47Z</time>
      </trkpt>
      <trkpt lat="42.872504" lon="0.480258">
        <ele>1845.4</ele>
        <time>2013-10-26T12:17:56Z</time>
      </trkpt>
      <trkpt lat="42.872600" lon="0.480290">
        <ele>1844.7</ele>
        <time>2013-10-26T12:18:05Z</time>
      </trkpt>
      <trkpt lat="42.872700" lon="0.480348">
        <ele>1844.1</ele>
        <time>2013-10-26T12:18:15Z</time>
      </trkpt>
      <trkpt lat="42.872785" lon="0.480434">
        <ele>1843.3</ele>
        <time>2013-10-26T12:18:24Z</time>
      </trkpt>
      <trkpt lat="42.872877" lon="0.480506">
        <ele>1843.2</ele>
        <time>2013-10-26T12:18:33Z</time>
      </trkpt>
      <trkpt lat="42.872965" lon="0.480547">
        <ele>1842.3</ele>
        <time>2013-10-26T12:18:41Z</time>
      </trkpt>
      <trkpt lat="42.873047" lon="0.480602">
        <ele>1842.0</ele>
        <time>2013-10-26T12:18:49Z</time>
      </trkpt>
      <trkpt lat="42.873139" lon="0.480667">
        <ele>1841.4</ele>
        <time>2013-10-26T12:18:57Z</time>
      </trkpt>
      <trkpt lat="42.873203" lon="0.480765">
        <ele>1840.8</ele>
        <time>2013-10-26T12:19:05Z</time>
      </trkpt>
      <trkpt lat="42.873259" lon="0.480870">
        <ele>1840.2</ele>
        <time>2013-10-26T12:19:13Z</time>
      </trkpt>
      <trkpt lat="42.873285" lon="0.481000">
        <ele>1839.6</ele>
        <time>2013-10-26T12:19:23Z</time>
      </trkpt>
      <trkpt lat="42.873356" lon="0.481073">
        <ele>1838.1</ele>
        <time>2013-10-26T12:19:31Z</time>
      </trkpt>
      <trkpt lat="42.873412" lon="0.481172">
        <ele>1836.2</ele>
        <time>2013-10-26T12:19:40Z</time>
      </trkpt>
      <trkpt lat="42.873440" lon="0.481194">
        <ele>1833.8</ele>
        <time>2013-10-26T12:24:53Z</time>
      </trkpt>
      <trkpt lat="42.873497" lon="0.481230">
        <ele>1834.2</ele>
        <time>2013-10-26T12:27:09Z</time>
      </trkpt>
      <trkpt lat="42.873509" lon="0.481269">
        <ele>1833.9</ele>
        <time>2013-10-26T12:28:13Z</time>
      </trkpt>
      <trkpt lat="42.873579" lon="0.481378">
        <ele>1834.0</ele>
        <time>2013-10-26T12:28:30Z</time>
      </trkpt>
      <trkpt lat="42.873683" lon="0.481413">
        <ele>1833.4</ele>
        <time>2013-10-26T12:28:43Z</time>
      </trkpt>
      <trkpt lat="42.873780" lon="0.481396">
        <ele>1832.7</ele>
        <time>2013-10-26T12:28:56Z</time>
      </trkpt>
      <trkpt lat="42.873868" lon="0.481421">
        <ele>1832.4</ele>
        <time>2013-10-26T12:29:09Z</time>
      </trkpt>
      <trkpt lat="42.873928" lon="0.481343">
        <ele>1830.0</ele>
        <time>2013-10-26T12:29:19Z</time>
      </trkpt>
      <trkpt lat="42.874000" lon="0.481339">
        <ele>1827.2</ele>
        <time>2013-10-26T12:29:28Z</time>
      </trkpt>
      <trkpt lat="42.874068" lon="0.481361">
        <ele>1825.1</ele>
        <time>2013-10-26T12:29:38Z</time>
      </trkpt>
      <trkpt lat="42.874143" lon="0.481410">
        <ele>1824.6</ele>
        <time>2013-10-26T12:29:47Z</time>
      </trkpt>
      <trkpt lat="42.874229" lon="0.481486">
        <ele>1823.4</ele>
        <time>2013-10-26T12:29:57Z</time>
      </trkpt>
      <trkpt lat="42.874296" lon="0.481558">
        <ele>1821.7</ele>
        <time>2013-10-26T12:30:06Z</time>
      </trkpt>
      <trkpt lat="42.874366" lon="0.481645">
        <ele>1820.2</ele>
        <time>2013-10-26T12:30:16Z</time>
      </trkpt>
      <trkpt lat="42.874429" lon="0.481766">
        <ele>1820.4</ele>
        <time>2013-10-26T12:30:27Z</time>
      </trkpt>
      <trkpt lat="42.874487" lon="0.481872">
        <ele>1819.4</ele>
        <time>2013-10-26T12:30:36Z</time>
      </trkpt>
      <trkpt lat="42.874530" lon="0.481989">
        <ele>1818.5</ele>
        <time>2013-10-26T12:30:45Z</time>
      </trkpt>
      <trkpt lat="42.874591" lon="0.482101">
        <ele>1817.7</ele>
        <time>2013-10-26T12:30:55Z</time>
      </trkpt>
      <trkpt lat="42.874645" lon="0.482214">
        <ele>1816.2</ele>
        <time>2013-10-26T12:31:04Z</time>
      </trkpt>
      <trkpt lat="42.874642" lon="0.482263">
        <ele>1817.7</ele>
        <time>2013-10-26T12:32:23Z</time>
      </trkpt>
      <trkpt lat="42.874691" lon="0.482363">
        <ele>1818.2</ele>
        <time>2013-10-26T12:33:24Z</time>
      </trkpt>
      <trkpt lat="42.874693" lon="0.482488">
        <ele>1816.8</ele>
        <time>2013-10-26T12:33:43Z</time>
      </trkpt>
      <trkpt lat="42.874745" lon="0.482590">
        <ele>1814.4</ele>
        <time>2013-10-26T12:33:52Z</time>
      </trkpt>
      <trkpt lat="42.874796" lon="0.482698">
        <ele>1813.2</ele>
        <time>2013-10-26T12:34:02Z</time>
      </trkpt>
      <trkpt lat="42.874851" lon="0.482794">
        <ele>1812.7</ele>
        <time>2013-10-26T12:34:12Z</time>
      </trkpt>
      <trkpt lat="42.874891" lon="0.482932">
        <ele>1810.9</ele>
        <time>2013-10-26T12:34:22Z</time>
      </trkpt>
      <trkpt lat="42.874899" lon="0.483050">
        <ele>1808.9</ele>
        <time>2013-10-26T12:34:32Z</time>
      </trkpt>
      <trkpt lat="42.874909" lon="0.483195">
        <ele>1807.9</ele>
        <time>2013-10-26T12:34:42Z</time>
      </trkpt>
      <trkpt lat="42.874902" lon="0.483324">
        <ele>1806.8</ele>
        <time>2013-10-26T12:34:52Z</time>
      </trkpt>
      <trkpt lat="42.874905" lon="0.483455">
        <ele>1806.2</ele>
        <time>2013-10-26T12:35:03Z</time>
      </trkpt>
      <trkpt lat="42.874897" lon="0.483593">
        <ele>1805.0</ele>
        <time>2013-10-26T12:35:14Z</time>
      </trkpt>
      <trkpt lat="42.874865" lon="0.483716">
        <ele>1804.4</ele>
        <time>2013-10-26T12:35:50Z</time>
      </trkpt>
      <trkpt lat="42.874866" lon="0.483834">
        <ele>1803.5</ele>
        <time>2013-10-26T12:35:58Z</time>
      </trkpt>
      <trkpt lat="42.874863" lon="0.483959">
        <ele>1802.6</ele>
        <time>2013-10-26T12:36:06Z</time>
      </trkpt>
      <trkpt lat="42.874869" lon="0.484091">
        <ele>1801.7</ele>
        <time>2013-10-26T12:36:16Z</time>
      </trkpt>
      <trkpt lat="42.874858" lon="0.484227">
        <ele>1801.7</ele>
        <time>2013-10-26T12:36:27Z</time>
      </trkpt>
      <trkpt lat="42.874862" lon="0.484360">
        <ele>1801.8</ele>
        <time>2013-10-26T12:36:38Z</time>
      </trkpt>
      <trkpt lat="42.874848" lon="0.484492">
        <ele>1801.4</ele>
        <time>2013-10-26T12:36:48Z</time>
      </trkpt>
      <trkpt lat="42.874833" lon="0.484612">
        <ele>1801.2</ele>
        <time>2013-10-26T12:36:58Z</time>
      </trkpt>
      <trkpt lat="42.874823" lon="0.484726">
        <ele>1800.7</ele>
        <time>2013-10-26T12:37:08Z</time>
      </trkpt>
      <trkpt lat="42.874812" lon="0.484852">
        <ele>1799.9</ele>
        <time>2013-10-26T12:37:18Z</time>
      </trkpt>
      <trkpt lat="42.874835" lon="0.484981">
        <ele>1799.3</ele>
        <time>2013-10-26T12:37:28Z</time>
      </trkpt>
      <trkpt lat="42.874856" lon="0.485114">
        <ele>1799.0</ele>
        <time>2013-10-26T12:37:37Z</time>
      </trkpt>
      <trkpt lat="42.874841" lon="0.485249">
        <ele>1799.9</ele>
        <time>2013-10-26T12:37:48Z</time>
      </trkpt>
      <trkpt lat="42.874829" lon="0.485378">
        <ele>1800.4</ele>
        <time>2013-10-26T12:37:57Z</time>
      </trkpt>
      <trkpt lat="42.874807" lon="0.485521">
        <ele>1800.6</ele>
        <time>2013-10-26T12:38:07Z</time>
      </trkpt>
      <trkpt lat="42.874779" lon="0.485651">
        <ele>1800.9</ele>
        <time>2013-10-26T12:38:16Z</time>
      </trkpt>
      <trkpt lat="42.874749" lon="0.485771">
        <ele>1800.6</ele>
        <time>2013-10-26T12:38:25Z</time>
      </trkpt>
      <trkpt lat="42.874720" lon="0.485869">
        <ele>1800.6</ele>
        <time>2013-10-26T12:38:35Z</time>
      </trkpt>
      <trkpt lat="42.874706" lon="0.485995">
        <ele>1800.0</ele>
        <time>2013-10-26T12:38:46Z</time>
      </trkpt>
      <trkpt lat="42.874693" lon="0.486134">
        <ele>1799.6</ele>
        <time>2013-10-26T12:38:56Z</time>
      </trkpt>
      <trkpt lat="42.874688" lon="0.486258">
        <ele>1799.6</ele>
        <time>2013-10-26T12:39:05Z</time>
      </trkpt>
      <trkpt lat="42.874685" lon="0.486389">
        <ele>1799.1</ele>
        <time>2013-10-26T12:39:14Z</time>
      </trkpt>
      <trkpt lat="42.874682" lon="0.486519">
        <ele>1798.5</ele>
        <time>2013-10-26T12:39:23Z</time>
      </trkpt>
      <trkpt lat="42.874699" lon="0.486652">
        <ele>1797.6</ele>
        <time>2013-10-26T12:39:32Z</time>
      </trkpt>
      <trkpt lat="42.874725" lon="0.486769">
        <ele>1796.6</ele>
        <time>2013-10-26T12:39:41Z</time>
      </trkpt>
      <trkpt lat="42.874772" lon="0.486880">
        <ele>1795.8</ele>
        <time>2013-10-26T12:39:51Z</time>
      </trkpt>
      <trkpt lat="42.874814" lon="0.487001">
        <ele>1795.4</ele>
        <time>2013-10-26T12:40:00Z</time>
      </trkpt>
      <trkpt lat="42.874868" lon="0.487106">
        <ele>1795.3</ele>
        <time>2013-10-26T12:40:09Z</time>
      </trkpt>
      <trkpt lat="42.874924" lon="0.487202">
        <ele>1794.3</ele>
        <time>2013-10-26T12:41:02Z</time>
      </trkpt>
      <trkpt lat="42.874971" lon="0.487316">
        <ele>1793.8</ele>
        <time>2013-10-26T12:41:19Z</time>
      </trkpt>
      <trkpt lat="42.875028" lon="0.487414">
        <ele>1793.8</ele>
        <time>2013-10-26T12:41:29Z</time>
      </trkpt>
      <trkpt lat="42.875077" lon="0.487528">
        <ele>1794.2</ele>
        <time>2013-10-26T12:41:39Z</time>
      </trkpt>
      <trkpt lat="42.875134" lon="0.487634">
        <ele>1794.0</ele>
        <time>2013-10-26T12:41:48Z</time>
      </trkpt>
      <trkpt lat="42.875170" lon="0.487749">
        <ele>1793.7</ele>
        <time>2013-10-26T12:41:57Z</time>
      </trkpt>
      <trkpt lat="42.875172" lon="0.487892">
        <ele>1792.7</ele>
        <time>2013-10-26T12:42:07Z</time>
      </trkpt>
      <trkpt lat="42.875142" lon="0.488023">
        <ele>1791.1</ele>
        <time>2013-10-26T12:42:15Z</time>
      </trkpt>
      <trkpt lat="42.875137" lon="0.488145">
        <ele>1789.1</ele>
        <time>2013-10-26T12:42:23Z</time>
      </trkpt>
      <trkpt lat="42.875144" lon="0.488279">
        <ele>1787.9</ele>
        <time>2013-10-26T12:42:32Z</time>
      </trkpt>
      <trkpt lat="42.875134" lon="0.488403">
        <ele>1787.1</ele>
        <time>2013-10-26T12:42:41Z</time>
      </trkpt>
      <trkpt lat="42.875079" lon="0.488507">
        <ele>1786.7</ele>
        <time>2013-10-26T12:42:53Z</time>
      </trkpt>
      <trkpt lat="42.875002" lon="0.488609">
        <ele>1788.3</ele>
        <time>2013-10-26T12:43:05Z</time>
      </trkpt>
      <trkpt lat="42.874926" lon="0.488695">
        <ele>1788.8</ele>
        <time>2013-10-26T12:43:16Z</time>
      </trkpt>
      <trkpt lat="42.874846" lon="0.488797">
        <ele>1789.1</ele>
        <time>2013-10-26T12:43:28Z</time>
      </trkpt>
      <trkpt lat="42.874793" lon="0.488898">
        <ele>1789.7</ele>
        <time>2013-10-26T12:43:36Z</time>
      </trkpt>
      <trkpt lat="42.874734" lon="0.488997">
        <ele>1790.6</ele>
        <time>2013-10-26T12:43:45Z</time>
      </trkpt>
      <trkpt lat="42.874674" lon="0.489101">
        <ele>1790.1</ele>
        <time>2013-10-26T12:43:55Z</time>
      </trkpt>
      <trkpt lat="42.874622" lon="0.489196">
        <ele>1790.2</ele>
        <time>2013-10-26T12:44:04Z</time>
      </trkpt>
      <trkpt lat="42.874577" lon="0.489310">
        <ele>1790.9</ele>
        <time>2013-10-26T12:44:14Z</time>
      </trkpt>
      <trkpt lat="42.874502" lon="0.489412">
        <ele>1791.9</ele>
        <time>2013-10-26T12:44:24Z</time>
      </trkpt>
      <trkpt lat="42.874438" lon="0.489499">
        <ele>1792.2</ele>
        <time>2013-10-26T12:44:33Z</time>
      </trkpt>
      <trkpt lat="42.874371" lon="0.489596">
        <ele>1791.7</ele>
        <time>2013-10-26T12:44:42Z</time>
      </trkpt>
      <trkpt lat="42.874315" lon="0.489694">
        <ele>1791.2</ele>
        <time>2013-10-26T12:44:51Z</time>
      </trkpt>
      <trkpt lat="42.874259" lon="0.489805">
        <ele>1790.9</ele>
        <time>2013-10-26T12:45:01Z</time>
      </trkpt>
      <trkpt lat="42.874188" lon="0.489897">
        <ele>1791.0</ele>
        <time>2013-10-26T12:45:11Z</time>
      </trkpt>
      <trkpt lat="42.874134" lon="0.490004">
        <ele>1791.6</ele>
        <time>2013-10-26T12:45:22Z</time>
      </trkpt>
      <trkpt lat="42.874080" lon="0.490106">
        <ele>1791.1</ele>
        <time>2013-10-26T12:45:33Z</time>
      </trkpt>
      <trkpt lat="42.874015" lon="0.490197">
        <ele>1790.7</ele>
        <time>2013-10-26T12:45:43Z</time>
      </trkpt>
      <trkpt lat="42.873953" lon="0.490289">
        <ele>1790.0</ele>
        <time>2013-10-26T12:45:55Z</time>
      </trkpt>
      <trkpt lat="42.873860" lon="0.490366">
        <ele>1789.8</ele>
        <time>2013-10-26T12:46:08Z</time>
      </trkpt>
      <trkpt lat="42.873785" lon="0.490447">
        <ele>1789.2</ele>
        <time>2013-10-26T12:46:18Z</time>
      </trkpt>
      <trkpt lat="42.873721" lon="0.490541">
        <ele>1788.7</ele>
        <time>2013-10-26T12:46:29Z</time>
      </trkpt>
      <trkpt lat="42.873637" lon="0.490635">
        <ele>1787.8</ele>
        <time>2013-10-26T12:46:40Z</time>
      </trkpt>
      <trkpt lat="42.873577" lon="0.490731">
        <ele>1787.7</ele>
        <time>2013-10-26T12:46:50Z</time>
      </trkpt>
      <trkpt lat="42.873510" lon="0.490833">
        <ele>1787.7</ele>
        <time>2013-10-26T12:47:00Z</time>
      </trkpt>
      <trkpt lat="42.873446" lon="0.490914">
        <ele>1787.2</ele>
        <time>2013-10-26T12:47:09Z</time>
      </trkpt>
      <trkpt lat="42.873390" lon="0.490962">
        <ele>1786.8</ele>
        <time>2013-10-26T12:47:42Z</time>
      </trkpt>
      <trkpt lat="42.873312" lon="0.491048">
        <ele>1786.4</ele>
        <time>2013-10-26T12:47:51Z</time>
      </trkpt>
      <trkpt lat="42.873233" lon="0.491129">
        <ele>1785.9</ele>
        <time>2013-10-26T12:48:00Z</time>
      </trkpt>
      <trkpt lat="42.873160" lon="0.491222">
        <ele>1785.5</ele>
        <time>2013-10-26T12:48:08Z</time>
      </trkpt>
      <trkpt lat="42.873079" lon="0.491289">
        <ele>1785.1</ele>
        <time>2013-10-26T12:48:17Z</time>
      </trkpt>
      <trkpt lat="42.872995" lon="0.491342">
        <ele>1784.4</ele>
        <time>2013-10-26T12:48:26Z</time>
      </trkpt>
      <trkpt lat="42.872914" lon="0.491404">
        <ele>1783.8</ele>
        <time>2013-10-26T12:48:36Z</time>
      </trkpt>
      <trkpt lat="42.872835" lon="0.491468">
        <ele>1782.4</ele>
        <time>2013-10-26T12:48:45Z</time>
      </trkpt>
      <trkpt lat="42.872756" lon="0.491539">
        <ele>1781.2</ele>
        <time>2013-10-26T12:48:54Z</time>
      </trkpt>
      <trkpt lat="42.872675" lon="0.491605">
        <ele>1780.0</ele>
        <time>2013-10-26T12:49:03Z</time>
      </trkpt>
      <trkpt lat="42.872603" lon="0.491704">
        <ele>1778.7</ele>
        <time>2013-10-26T12:49:12Z</time>
      </trkpt>
      <trkpt lat="42.872543" lon="0.491805">
        <ele>1778.2</ele>
        <time>2013-10-26T12:49:20Z</time>
      </trkpt>
      <trkpt lat="42.872493" lon="0.491896">
        <ele>1777.8</ele>
        <time>2013-10-26T12:49:29Z</time>
      </trkpt>
      <trkpt lat="42.872443" lon="0.492001">
        <ele>1776.8</ele>
        <time>2013-10-26T12:49:37Z</time>
      </trkpt>
      <trkpt lat="42.872403" lon="0.492102">
        <ele>1775.9</ele>
        <time>2013-10-26T12:49:45Z</time>
      </trkpt>
      <trkpt lat="42.872369" lon="0.492214">
        <ele>1774.9</ele>
        <time>2013-10-26T12:49:55Z</time>
      </trkpt>
      <trkpt lat="42.872370" lon="0.492325">
        <ele>1774.0</ele>
        <time>2013-10-26T12:50:06Z</time>
      </trkpt>
      <trkpt lat="42.872344" lon="0.492462">
        <ele>1773.7</ele>
        <time>2013-10-26T12:50:15Z</time>
      </trkpt>
      <trkpt lat="42.872331" lon="0.492586">
        <ele>1773.1</ele>
        <time>2013-10-26T12:50:24Z</time>
      </trkpt>
      <trkpt lat="42.872346" lon="0.492723">
        <ele>1772.2</ele>
        <time>2013-10-26T12:50:36Z</time>
      </trkpt>
      <trkpt lat="42.872342" lon="0.492866">
        <ele>1771.2</ele>
        <time>2013-10-26T12:50:46Z</time>
      </trkpt>
      <trkpt lat="42.872362" lon="0.493003">
        <ele>1769.3</ele>
        <time>2013-10-26T12:50:56Z</time>
      </trkpt>
      <trkpt lat="42.872362" lon="0.493131">
        <ele>1767.0</ele>
        <time>2013-10-26T12:51:06Z</time>
      </trkpt>
      <trkpt lat="42.872373" lon="0.493260">
        <ele>1764.0</ele>
        <time>2013-10-26T12:51:16Z</time>
      </trkpt>
      <trkpt lat="42.872379" lon="0.493396">
        <ele>1761.8</ele>
        <time>2013-10-26T12:51:25Z</time>
      </trkpt>
      <trkpt lat="42.872405" lon="0.493514">
        <ele>1759.7</ele>
        <time>2013-10-26T12:51:34Z</time>
      </trkpt>
      <trkpt lat="42.872469" lon="0.493618">
        <ele>1758.4</ele>
        <time>2013-10-26T12:51:42Z</time>
      </trkpt>
      <trkpt lat="42.872520" lon="0.493728">
        <ele>1758.2</ele>
        <time>2013-10-26T12:51:50Z</time>
      </trkpt>
      <trkpt lat="42.872582" lon="0.493816">
        <ele>1757.9</ele>
        <time>2013-10-26T12:51:58Z</time>
      </trkpt>
      <trkpt lat="42.872651" lon="0.493905">
        <ele>1758.0</ele>
        <time>2013-10-26T12:52:06Z</time>
      </trkpt>
      <trkpt lat="42.872711" lon="0.494010">
        <ele>1758.3</ele>
        <time>2013-10-26T12:52:15Z</time>
      </trkpt>
      <trkpt lat="42.872787" lon="0.494089">
        <ele>1758.4</ele>
        <time>2013-10-26T12:52:25Z</time>
      </trkpt>
      <trkpt lat="42.872859" lon="0.494175">
        <ele>1757.8</ele>
        <time>2013-10-26T12:52:35Z</time>
      </trkpt>
      <trkpt lat="42.872922" lon="0.494279">
        <ele>1756.8</ele>
        <time>2013-10-26T12:52:44Z</time>
      </trkpt>
      <trkpt lat="42.872920" lon="0.494411">
        <ele>1756.4</ele>
        <time>2013-10-26T12:52:53Z</time>
      </trkpt>
      <trkpt lat="42.872885" lon="0.494490">
        <ele>1757.1</ele>
        <time>2013-10-26T12:53:01Z</time>
      </trkpt>
      <trkpt lat="42.872846" lon="0.494588">
        <ele>1756.9</ele>
        <time>2013-10-26T12:53:10Z</time>
      </trkpt>
      <trkpt lat="42.872804" lon="0.494712">
        <ele>1756.3</ele>
        <time>2013-10-26T12:53:19Z</time>
      </trkpt>
      <trkpt lat="42.872762" lon="0.494838">
        <ele>1755.4</ele>
        <time>2013-10-26T12:53:27Z</time>
      </trkpt>
      <trkpt lat="42.872735" lon="0.494961">
        <ele>1754.7</ele>
        <time>2013-10-26T12:53:36Z</time>
      </trkpt>
      <trkpt lat="42.872712" lon="0.495101">
        <ele>1754.1</ele>
        <time>2013-10-26T12:53:46Z</time>
      </trkpt>
      <trkpt lat="42.872713" lon="0.495235">
        <ele>1753.6</ele>
        <time>2013-10-26T12:53:55Z</time>
      </trkpt>
      <trkpt lat="42.872700" lon="0.495375">
        <ele>1752.8</ele>
        <time>2013-10-26T12:54:04Z</time>
      </trkpt>
      <trkpt lat="42.872707" lon="0.495491">
        <ele>1751.4</ele>
        <time>2013-10-26T12:54:12Z</time>
      </trkpt>
      <trkpt lat="42.872729" lon="0.495607">
        <ele>1749.1</ele>
        <time>2013-10-26T12:54:20Z</time>
      </trkpt>
      <trkpt lat="42.872756" lon="0.495719">
        <ele>1746.4</ele>
        <time>2013-10-26T12:54:28Z</time>
      </trkpt>
      <trkpt lat="42.872751" lon="0.495848">
        <ele>1744.1</ele>
        <time>2013-10-26T12:54:36Z</time>
      </trkpt>
      <trkpt lat="42.872786" lon="0.495976">
        <ele>1741.3</ele>
        <time>2013-10-26T12:54:44Z</time>
      </trkpt>
      <trkpt lat="42.872836" lon="0.496095">
        <ele>1739.3</ele>
        <time>2013-10-26T12:54:53Z</time>
      </trkpt>
      <trkpt lat="42.872869" lon="0.496214">
        <ele>1737.7</ele>
        <time>2013-10-26T12:55:01Z</time>
      </trkpt>
      <trkpt lat="42.872915" lon="0.496329">
        <ele>1736.1</ele>
        <time>2013-10-26T12:55:09Z</time>
      </trkpt>
      <trkpt lat="42.872968" lon="0.496443">
        <ele>1735.3</ele>
        <time>2013-10-26T12:55:17Z</time>
      </trkpt>
      <trkpt lat="42.873032" lon="0.496549">
        <ele>1734.5</ele>
        <time>2013-10-26T12:55:25Z</time>
      </trkpt>
      <trkpt lat="42.873068" lon="0.496661">
        <ele>1732.3</ele>
        <time>2013-10-26T12:56:22Z</time>
      </trkpt>
      <trkpt lat="42.873112" lon="0.496751">
        <ele>1732.5</ele>
        <time>2013-10-26T12:57:08Z</time>
      </trkpt>
      <trkpt lat="42.873076" lon="0.496894">
        <ele>1732.9</ele>
        <time>2013-10-26T12:57:20Z</time>
      </trkpt>
      <trkpt lat="42.873007" lon="0.497001">
        <ele>1733.6</ele>
        <time>2013-10-26T12:57:31Z</time>
      </trkpt>
      <trkpt lat="42.872959" lon="0.497120">
        <ele>1734.3</ele>
        <time>2013-10-26T12:57:42Z</time>
      </trkpt>
      <trkpt lat="42.872901" lon="0.497244">
        <ele>1735.0</ele>
        <time>2013-10-26T12:57:54Z</time>
      </trkpt>
      <trkpt lat="42.872870" lon="0.497366">
        <ele>1735.9</ele>
        <time>2013-10-26T12:58:07Z</time>
      </trkpt>
      <trkpt lat="42.872844" lon="0.497486">
        <ele>1736.7</ele>
        <time>2013-10-26T12:58:17Z</time>
      </trkpt>
      <trkpt lat="42.872817" lon="0.497616">
        <ele>1737.2</ele>
        <time>2013-10-26T12:58:27Z</time>
      </trkpt>
      <trkpt lat="42.872798" lon="0.497733">
        <ele>1738.2</ele>
        <time>2013-10-26T12:58:36Z</time>
      </trkpt>
      <trkpt lat="42.872792" lon="0.497857">
        <ele>1739.0</ele>
        <time>2013-10-26T12:58:46Z</time>
      </trkpt>
      <trkpt lat="42.872804" lon="0.497983">
        <ele>1739.7</ele>
        <time>2013-10-26T12:58:57Z</time>
      </trkpt>
      <trkpt lat="42.872828" lon="0.498115">
        <ele>1740.3</ele>
        <time>2013-10-26T12:59:07Z</time>
      </trkpt>
      <trkpt lat="42.872872" lon="0.498237">
        <ele>1741.6</ele>
        <time>2013-10-26T12:59:18Z</time>
      </trkpt>
      <trkpt lat="42.872929" lon="0.498345">
        <ele>1742.4</ele>
        <time>2013-10-26T12:59:28Z</time>
      </trkpt>
      <trkpt lat="42.872988" lon="0.498441">
        <ele>1743.3</ele>
        <time>2013-10-26T12:59:38Z</time>
      </trkpt>
      <trkpt lat="42.873066" lon="0.498515">
        <ele>1743.7</ele>
        <time>2013-10-26T12:59:47Z</time>
      </trkpt>
      <trkpt lat="42.873137" lon="0.498611">
        <ele>1744.2</ele>
        <time>2013-10-26T12:59:56Z</time>
      </trkpt>
      <trkpt lat="42.873202" lon="0.498696">
        <ele>1744.8</ele>
        <time>2013-10-26T13:00:05Z</time>
      </trkpt>
      <trkpt lat="42.873258" lon="0.498797">
        <ele>1745.6</ele>
        <time>2013-10-26T13:00:16Z</time>
      </trkpt>
      <trkpt lat="42.873277" lon="0.498923">
        <ele>1746.6</ele>
        <time>2013-10-26T13:00:30Z</time>
      </trkpt>
      <trkpt lat="42.873321" lon="0.499046">
        <ele>1747.1</ele>
        <time>2013-10-26T13:00:38Z</time>
      </trkpt>
      <trkpt lat="42.873369" lon="0.499164">
        <ele>1748.0</ele>
        <time>2013-10-26T13:00:49Z</time>
      </trkpt>
      <trkpt lat="42.873419" lon="0.499266">
        <ele>1748.7</ele>
        <time>2013-10-26T13:00:59Z</time>
      </trkpt>
      <trkpt lat="42.873476" lon="0.499374">
        <ele>1749.3</ele>
        <time>2013-10-26T13:01:09Z</time>
      </trkpt>
      <trkpt lat="42.873521" lon="0.499478">
        <ele>1750.1</ele>
        <time>2013-10-26T13:01:19Z</time>
      </trkpt>
      <trkpt lat="42.873572" lon="0.499584">
        <ele>1750.5</ele>
        <time>2013-10-26T13:01:28Z</time>
      </trkpt>
      <trkpt lat="42.873639" lon="0.499682">
        <ele>1750.7</ele>
        <time>2013-10-26T13:01:35Z</time>
      </trkpt>
      <trkpt lat="42.873696" lon="0.499783">
        <ele>1751.1</ele>
        <time>2013-10-26T13:01:43Z</time>
      </trkpt>
      <trkpt lat="42.873761" lon="0.499885">
        <ele>1751.7</ele>
        <time>2013-10-26T13:01:51Z</time>
      </trkpt>
      <trkpt lat="42.873818" lon="0.499977">
        <ele>1752.6</ele>
        <time>2013-10-26T13:01:59Z</time>
      </trkpt>
      <trkpt lat="42.873871" lon="0.500089">
        <ele>1753.5</ele>
        <time>2013-10-26T13:02:08Z</time>
      </trkpt>
      <trkpt lat="42.873926" lon="0.500203">
        <ele>1754.1</ele>
        <time>2013-10-26T13:02:18Z</time>
      </trkpt>
      <trkpt lat="42.873986" lon="0.500302">
        <ele>1755.0</ele>
        <time>2013-10-26T13:02:32Z</time>
      </trkpt>
      <trkpt lat="42.874054" lon="0.500407">
        <ele>1755.3</ele>
        <time>2013-10-26T13:02:43Z</time>
      </trkpt>
      <trkpt lat="42.874103" lon="0.500520">
        <ele>1756.2</ele>
        <time>2013-10-26T13:02:56Z</time>
      </trkpt>
      <trkpt lat="42.874097" lon="0.500666">
        <ele>1756.4</ele>
        <time>2013-10-26T13:03:12Z</time>
      </trkpt>
      <trkpt lat="42.874063" lon="0.500772">
        <ele>1756.5</ele>
        <time>2013-10-26T13:03:35Z</time>
      </trkpt>
      <trkpt lat="42.874039" lon="0.500873">
        <ele>1756.5</ele>
        <time>2013-10-26T13:04:00Z</time>
      </trkpt>
    </trkseg>
  </trk>
</gpx>

